Observation data for Canadian on 01/19/2019      Previous  Date  Next       Current Mesonet Observations  Soil Data  Daily Summary Page  Observations in Plain Language
KCA1 190600Z 35024G29KT M00/M03 A2998 RMK A01 T10041032  RH  081%=      5-min Rain = 0
KCA1 190601Z 34025G30KT M00/M03 A2998 RMK A01 T10031033  RH  081%=      5-min Rain = 0
KCA1 190602Z 35025G34KT M00/M03 A2998 RMK A01 T10031033  RH  081%=      5-min Rain = 0
KCA1 190603Z 35021KT M00/M03 A2998 RMK A01 T10031033  RH  081%=      5-min Rain = 0
KCA1 190604Z 34021G29KT M00/M03 A2998 RMK A01 T10031033  RH  081%=      5-min Rain = 0
KCA1 190605Z 35024KT M00/M03 A2998 RMK A01 T10031033  RH  081%=      5-min Rain = 0
KCA1 190606Z 35022G28KT M00/M03 A2998 RMK A01 T10031033  RH  081%=      5-min Rain = 0
KCA1 190607Z 34022G27KT M00/M03 A2998 RMK A01 T10031033  RH  081%=      5-min Rain = 0
KCA1 190608Z 35018KT M00/M03 A2998 RMK A01 T10041033  RH  081%=      5-min Rain = 0
KCA1 190609Z 35023G30KT M00/M03 A2998 RMK A01 T10041033  RH  081%=      5-min Rain = 0
KCA1 190610Z 34018G24KT M00/M03 A2998 RMK A01 T10031033  RH  081%=      5-min Rain = 0
KCA1 190611Z 34018G23KT M00/M03 A2998 RMK A01 T10031032  RH  081%=      5-min Rain = 0
KCA1 190612Z 34020G27KT M00/M03 A2998 RMK A01 T10031032  RH  081%=      5-min Rain = 0
KCA1 190613Z 34024G32KT M00/M03 A2998 RMK A01 T10031032  RH  081%=      5-min Rain = 0
KCA1 190614Z 35024G33KT M00/M03 A2998 RMK A01 T10031032  RH  081%=      5-min Rain = 0
KCA1 190615Z 34020KT M00/M03 A2998 RMK A01 T10031032  RH  081%=      5-min Rain = 0
KCA1 190616Z 34020G26KT M00/M03 A2998 RMK A01 T10031032  RH  081%=      5-min Rain = 0
KCA1 190617Z 35026G36KT M00/M03 A2998 RMK A01 T10031032  RH  081%=      5-min Rain = 0
KCA1 190618Z 34025G30KT M00/M03 A2998 RMK A01 T10041033  RH  081%=      5-min Rain = 0
KCA1 190619Z 34022G27KT M00/M03 A2998 RMK A01 T10041033  RH  080%=      5-min Rain = 0
KCA1 190620Z 34023KT M00/M03 A2998 RMK A01 T10031033  RH  081%=      5-min Rain = 0
KCA1 190621Z 33022G27KT M00/M03 A2998 RMK A01 T10031033  RH  081%=      5-min Rain = 0
KCA1 190622Z 34024G31KT M00/M03 A2998 RMK A01 T10031032  RH  081%=      5-min Rain = 0
KCA1 190623Z 34025G34KT M00/M03 A2998 RMK A01 T10031032  RH  081%=      5-min Rain = 0
KCA1 190624Z 34022G28KT M00/M03 A2998 RMK A01 T10031033  RH  081%=      5-min Rain = 0
KCA1 190625Z 33030G38KT M00/M03 A2998 RMK A01 T10031032  RH  081%=      5-min Rain = 0
KCA1 190626Z 34025G33KT M00/M03 A2998 RMK A01 T10031032  RH  081%=      5-min Rain = 0
KCA1 190627Z 33028G38KT M00/M03 A2998 RMK A01 T10031032  RH  080%=      5-min Rain = 0
KCA1 190628Z 34024G30KT M00/M03 A2998 RMK A01 T10031033  RH  080%=      5-min Rain = 0
KCA1 190629Z 34028G34KT M00/M03 A2998 RMK A01 T10031032  RH  081%=      5-min Rain = 0
KCA1 190630Z 34025G31KT M00/M03 A2998 RMK A01 T10031032  RH  081%=      5-min Rain = 0
KCA1 190631Z 34024KT M00/M03 A2998 RMK A01 T10031032  RH  081%=      5-min Rain = 0
KCA1 190632Z 34025G32KT M00/M03 A2998 RMK A01 T10031032  RH  081%=      5-min Rain = 0
KCA1 190633Z 34025G34KT M00/M03 A2998 RMK A01 T10031032  RH  081%=      5-min Rain = 0
KCA1 190634Z 34022G32KT M00/M03 A2998 RMK A01 T10031032  RH  081%=      5-min Rain = 0
KCA1 190635Z 34028KT M00/M03 A2998 RMK A01 T10031031  RH  081%=      5-min Rain = 0
KCA1 190636Z 35025G32KT M00/M03 A2998 RMK A01 T10031031  RH  082%=      5-min Rain = 0
KCA1 190637Z 34025KT M00/M03 A2998 RMK A01 T10031031  RH  082%=      5-min Rain = 0
KCA1 190638Z 35023G33KT M00/M03 A2998 RMK A01 T10031031  RH  082%=      5-min Rain = 0
KCA1 190639Z 34027G35KT M00/M03 A2998 RMK A01 T10031031  RH  082%=      5-min Rain = 0
KCA1 190640Z 34030G37KT M00/M03 A2998 RMK A01 T10041031  RH  082%=      5-min Rain = 0
KCA1 190641Z 34023G30KT M00/M03 A2998 RMK A01 T10041031  RH  082%=      5-min Rain = 0
KCA1 190642Z 34027KT M00/M03 A2998 RMK A01 T10041031  RH  082%=      5-min Rain = 0
KCA1 190643Z 35024G30KT M00/M03 A2998 RMK A01 T10041031  RH  082%=      5-min Rain = 0
KCA1 190644Z 35025G30KT M00/M03 A2998 RMK A01 T10041031  RH  082%=      5-min Rain = 0
KCA1 190645Z 34028G33KT M00/M03 A2998 RMK A01 T10041030  RH  082%=      5-min Rain = 0
KCA1 190646Z 34025KT M00/M03 A2998 RMK A01 T10041030  RH  083%=      5-min Rain = 0
KCA1 190647Z 34027KT M01/M03 A2998 RMK A01 T10051031  RH  083%=      5-min Rain = 0
KCA1 190648Z 34027G36KT M01/M03 A2998 RMK A01 T10051030  RH  083%=      5-min Rain = 0
KCA1 190649Z 34027G33KT M01/M03 A2998 RMK A01 T10051030  RH  083%=      5-min Rain = 0
KCA1 190650Z 34026G35KT M01/M03 A2998 RMK A01 T10051030  RH  083%=      5-min Rain = 0
KCA1 190651Z 34025G32KT M01/M03 A2998 RMK A01 T10051030  RH  083%=      5-min Rain = 0
KCA1 190652Z 34025KT M01/M03 A2998 RMK A01 T10051030  RH  083%=      5-min Rain = 0
KCA1 190653Z 34021G26KT M01/M03 A2999 RMK A01 T10051031  RH  083%=      5-min Rain = 0
KCA1 190654Z 34025G30KT M01/M03 A2999 RMK A01 T10051031  RH  083%=      5-min Rain = 0
KCA1 190655Z 34027G33KT M01/M03 A2998 RMK A01 T10051031  RH  083%=      5-min Rain = 0
KCA1 190656Z 35034G39KT M01/M03 A2998 RMK A01 T10061032  RH  082%=      5-min Rain = 0
KCA1 190657Z 34032KT M01/M03 A2998 RMK A01 T10061033  RH  082%=      5-min Rain = 0
KCA1 190658Z 35029G35KT M01/M03 A2999 RMK A01 T10061032  RH  082%=      5-min Rain = 0
KCA1 190659Z 34024G33KT M01/M03 A2999 RMK A01 T10061032  RH  083%=      5-min Rain = 0
KCA1 190700Z 34028G34KT M01/M03 A2999 RMK A01 T10061032  RH  083%=      5-min Rain = 0
KCA1 190701Z 34026G32KT M01/M03 A2999 RMK A01 T10071032  RH  083%=      5-min Rain = 0
KCA1 190702Z 34029G35KT M01/M03 A2999 RMK A01 T10071032  RH  083%=      5-min Rain = 0
KCA1 190703Z 34031G37KT M01/M03 A2999 RMK A01 T10071032  RH  083%=      5-min Rain = 0
KCA1 190704Z 34025G30KT M01/M03 A2999 RMK A01 T10071032  RH  083%=      5-min Rain = 0
KCA1 190705Z 34021KT M01/M03 A2999 RMK A01 T10071032  RH  083%=      5-min Rain = 0
KCA1 190706Z 34022G30KT M01/M03 A2999 RMK A01 T10071032  RH  083%=      5-min Rain = 0
KCA1 190707Z 34022G28KT M01/M03 A30 RMK A01 T10071032  RH  083%=      5-min Rain = 0
KCA1 190708Z 34021G27KT M01/M03 A30 RMK A01 T10071033  RH  083%=      5-min Rain = 0
KCA1 190709Z 34026G32KT M01/M03 A2999 RMK A01 T10071033  RH  083%=      5-min Rain = 0
KCA1 190710Z 34030KT M01/M03 A30 RMK A01 T10071034  RH  082%=      5-min Rain = 0
KCA1 190711Z 34025G32KT M01/M04 A30 RMK A01 T10071035  RH  082%=      5-min Rain = 0
KCA1 190712Z 34025G30KT M01/M04 A30 RMK A01 T10071035  RH  082%=      5-min Rain = 0
KCA1 190713Z 34023G28KT M01/M04 A30 RMK A01 T10071035  RH  082%=      5-min Rain = 0
KCA1 190714Z 34026G32KT M01/M04 A30 RMK A01 T10081035  RH  082%=      5-min Rain = 0
KCA1 190715Z 34023G30KT M01/M04 A30 RMK A01 T10081035  RH  082%=      5-min Rain = 0
KCA1 190716Z 34025KT M01/M04 A30 RMK A01 T10081035  RH  082%=      5-min Rain = 0
KCA1 190717Z 33030G36KT M01/M04 A30 RMK A01 T10081037  RH  081%=      5-min Rain = 0
KCA1 190718Z 34027G32KT M01/M04 A30 RMK A01 T10091039  RH  080%=      5-min Rain = 0
KCA1 190719Z 34027KT M01/M04 A30 RMK A01 T10091040  RH  079%=      5-min Rain = 0
KCA1 190720Z 35024G36KT M01/M04 A30 RMK A01 T10091041  RH  079%=      5-min Rain = 0
KCA1 190721Z 34025G33KT M01/M04 A30 RMK A01 T10101042  RH  079%=      5-min Rain = 0
KCA1 190722Z 34026G31KT M01/M04 A30 RMK A01 T10101043  RH  078%=      5-min Rain = 0
KCA1 190723Z 33030G38KT M01/M05 A30 RMK A01 T10101045  RH  077%=      5-min Rain = 0
KCA1 190724Z 34031G39KT M01/M05 A30 RMK A01 T10111047  RH  077%=      5-min Rain = 0
KCA1 190725Z 34030KT M01/M05 A30 RMK A01 T10121048  RH  076%=      5-min Rain = 0
KCA1 190726Z 34032G37KT M01/M05 A30 RMK A01 T10121049  RH  076%=      5-min Rain = 0
KCA1 190727Z 34028KT M01/M05 A3001 RMK A01 T10131049  RH  076%=      5-min Rain = 0
KCA1 190728Z 34028G34KT M01/M05 A3001 RMK A01 T10131049  RH  076%=      5-min Rain = 0
KCA1 190729Z 34024G29KT M01/M05 A3001 RMK A01 T10141049  RH  077%=      5-min Rain = 0
KCA1 190730Z 34020G25KT M01/M05 A3001 RMK A01 T10141049  RH  077%=      5-min Rain = 0
KCA1 190731Z 35026G32KT M01/M05 A3001 RMK A01 T10141049  RH  077%=      5-min Rain = 0
KCA1 190732Z 34025G30KT M02/M05 A3001 RMK A01 T10151049  RH  077%=      5-min Rain = 0
KCA1 190733Z 34025G31KT M01/M05 A3001 RMK A01 T10141048  RH  078%=      5-min Rain = 0
KCA1 190734Z 34029G37KT M01/M05 A3001 RMK A01 T10141047  RH  078%=      5-min Rain = 0
KCA1 190735Z 34025G30KT M01/M05 A3002 RMK A01 T10141047  RH  079%=      5-min Rain = 0
KCA1 190736Z 34023G29KT M02/M05 A3002 RMK A01 T10151046  RH  079%=      5-min Rain = 0
KCA1 190737Z 34026G35KT M02/M05 A3002 RMK A01 T10151046  RH  079%=      5-min Rain = 0
KCA1 190738Z 34029G37KT M02/M05 A3002 RMK A01 T10151046  RH  079%=      5-min Rain = 0
KCA1 190739Z 34026G33KT M02/M05 A3002 RMK A01 T10151047  RH  079%=      5-min Rain = 0
KCA1 190740Z 34028G33KT M02/M05 A3002 RMK A01 T10151047  RH  079%=      5-min Rain = 0
KCA1 190741Z 33024G32KT M02/M05 A3002 RMK A01 T10151048  RH  078%=      5-min Rain = 0
KCA1 190742Z 34028KT M02/M05 A3002 RMK A01 T10151048  RH  078%=      5-min Rain = 0
KCA1 190743Z 34026G35KT M02/M05 A3002 RMK A01 T10161050  RH  078%=      5-min Rain = 0
KCA1 190744Z 33029G37KT M02/M05 A3002 RMK A01 T10161051  RH  077%=      5-min Rain = 0
KCA1 190745Z 33025G31KT M02/M05 A3002 RMK A01 T10171051  RH  077%=      5-min Rain = 0
KCA1 190746Z 34019G24KT M02/M05 A3002 RMK A01 T10171052  RH  077%=      5-min Rain = 0
KCA1 190747Z 34026G36KT M02/M05 A3002 RMK A01 T10171051  RH  078%=      5-min Rain = 0
KCA1 190748Z 34024G31KT M02/M05 A3002 RMK A01 T10171052  RH  077%=      5-min Rain = 0
KCA1 190749Z 34022G28KT M02/M05 A3003 RMK A01 T10181052  RH  077%=      5-min Rain = 0
KCA1 190750Z 34024G30KT M02/M05 A3003 RMK A01 T10181052  RH  077%=      5-min Rain = 0
KCA1 190751Z 34021G26KT M02/M05 A3003 RMK A01 T10181052  RH  078%=      5-min Rain = 0
KCA1 190752Z 34025G30KT M02/M05 A3003 RMK A01 T10181051  RH  078%=      5-min Rain = 0
KCA1 190753Z 33023G28KT M02/M05 A3003 RMK A01 T10181051  RH  078%=      5-min Rain = 0
KCA1 190754Z 34026G33KT M02/M05 A3003 RMK A01 T10181051  RH  078%=      5-min Rain = 0
KCA1 190755Z 33027G36KT M02/M05 A3003 RMK A01 T10191051  RH  078%=      5-min Rain = 0
KCA1 190756Z 34027G36KT M02/M05 A3003 RMK A01 T10191052  RH  078%=      5-min Rain = 0
KCA1 190757Z 34027G33KT M02/M05 A3003 RMK A01 T10191052  RH  078%=      5-min Rain = 0
KCA1 190758Z 33026G34KT M02/M05 A3003 RMK A01 T10191052  RH  078%=      5-min Rain = 0
KCA1 190759Z 34027G35KT M02/M05 A3003 RMK A01 T10201053  RH  078%=      5-min Rain = 0
KCA1 190800Z 34031G38KT M02/M05 A3003 RMK A01 T10191053  RH  078%=      5-min Rain = 0
KCA1 190801Z 34026G31KT M02/M05 A3003 RMK A01 T10201053  RH  078%=      5-min Rain = 0
KCA1 190802Z 34025G31KT M02/M05 A3003 RMK A01 T10201053  RH  078%=      5-min Rain = 0
KCA1 190803Z 34029KT M02/M05 A3003 RMK A01 T10201054  RH  078%=      5-min Rain = 0
KCA1 190804Z 34024G30KT M02/M05 A3004 RMK A01 T10211054  RH  078%=      5-min Rain = 0
KCA1 190805Z 34025G33KT M02/M05 A3004 RMK A01 T10211054  RH  078%=      5-min Rain = 0
KCA1 190806Z 34025KT M02/M05 A3004 RMK A01 T10211054  RH  078%=      5-min Rain = 0
KCA1 190807Z 35026G32KT M02/M05 A3004 RMK A01 T10211054  RH  078%=      5-min Rain = 0
KCA1 190808Z 34028G33KT M02/M06 A3004 RMK A01 T10211055  RH  078%=      5-min Rain = 0
KCA1 190809Z 34025G30KT M02/M06 A3004 RMK A01 T10221055  RH  078%=      5-min Rain = 0
KCA1 190810Z 34027G35KT M02/M06 A3004 RMK A01 T10221056  RH  078%=      5-min Rain = 0
KCA1 190811Z 34027G35KT M02/M06 A3004 RMK A01 T10221056  RH  078%=      5-min Rain = 0
KCA1 190812Z 34028G34KT M02/M06 A3004 RMK A01 T10231057  RH  077%=      5-min Rain = 0
KCA1 190813Z 34024G31KT M02/M06 A3004 RMK A01 T10231057  RH  077%=      5-min Rain = 0
KCA1 190814Z 33027G35KT M02/M06 A3004 RMK A01 T10231057  RH  077%=      5-min Rain = 0
KCA1 190815Z 34023G34KT M02/M06 A3004 RMK A01 T10231058  RH  077%=      5-min Rain = 0
KCA1 190816Z 34028G34KT M02/M06 A3004 RMK A01 T10241058  RH  077%=      5-min Rain = 0
KCA1 190817Z 34030G35KT M02/M06 A3005 RMK A01 T10241059  RH  077%=      5-min Rain = 0
KCA1 190818Z 34027KT M02/M06 A3005 RMK A01 T10241059  RH  077%=      5-min Rain = 0
KCA1 190819Z 34028G36KT M02/M06 A3004 RMK A01 T10241059  RH  077%=      5-min Rain = 0
KCA1 190820Z 34028G36KT M03/M06 A3005 RMK A01 T10251060  RH  077%=      5-min Rain = 0
KCA1 190821Z 34029G35KT M03/M06 A3005 RMK A01 T10251060  RH  077%=      5-min Rain = 0
KCA1 190822Z 33029KT M03/M06 A3005 RMK A01 T10261061  RH  077%=      5-min Rain = 0
KCA1 190823Z 34028G36KT M03/M06 A3005 RMK A01 T10261061  RH  077%=      5-min Rain = 0
KCA1 190824Z 33031G39KT M03/M06 A3005 RMK A01 T10261061  RH  077%=      5-min Rain = 0
KCA1 190825Z 34029G37KT M03/M06 A3005 RMK A01 T10261061  RH  076%=      5-min Rain = 0
KCA1 190826Z 34028G36KT M03/M06 A3005 RMK A01 T10261062  RH  076%=      5-min Rain = 0
KCA1 190827Z 34029G37KT M03/M06 A3005 RMK A01 T10261062  RH  076%=      5-min Rain = 0
KCA1 190828Z 34029G35KT M03/M06 A3005 RMK A01 T10261062  RH  076%=      5-min Rain = 0
KCA1 190829Z 34026KT M03/M06 A3005 RMK A01 T10261062  RH  076%=      5-min Rain = 0
KCA1 190830Z 34026KT M03/M06 A3006 RMK A01 T10271063  RH  076%=      5-min Rain = 0
KCA1 190831Z 34030G37KT M03/M06 A3006 RMK A01 T10271063  RH  076%=      5-min Rain = 0
KCA1 190832Z 33030G36KT M03/M06 A3006 RMK A01 T10271063  RH  076%=      5-min Rain = 0
KCA1 190833Z 34031G38KT M03/M06 A3006 RMK A01 T10271063  RH  076%=      5-min Rain = 0
KCA1 190834Z 34029G40KT M03/M06 A3006 RMK A01 T10271063  RH  076%=      5-min Rain = 0
KCA1 190835Z 34026G36KT M03/M06 A3006 RMK A01 T10271063  RH  076%=      5-min Rain = 0
KCA1 190836Z 33025G31KT M03/M06 A3006 RMK A01 T10271062  RH  077%=      5-min Rain = 0
KCA1 190837Z 33025KT M03/M06 A3006 RMK A01 T10271062  RH  077%=      5-min Rain = 0
KCA1 190838Z 34028G35KT M03/M06 A3006 RMK A01 T10271061  RH  077%=      5-min Rain = 0
KCA1 190839Z 34025G33KT M03/M06 A3006 RMK A01 T10271061  RH  077%=      5-min Rain = 0
KCA1 190840Z 34030G36KT M03/M06 A3006 RMK A01 T10271061  RH  077%=      5-min Rain = 0
KCA1 190841Z 34025KT M03/M06 A3006 RMK A01 T10271062  RH  077%=      5-min Rain = 0
KCA1 190842Z 34027G34KT M03/M06 A3006 RMK A01 T10271062  RH  076%=      5-min Rain = 0
KCA1 190843Z 34025G31KT M03/M06 A3006 RMK A01 T10271062  RH  077%=      5-min Rain = 0
KCA1 190844Z 34022G27KT M03/M06 A3007 RMK A01 T10271062  RH  077%=      5-min Rain = 0
KCA1 190845Z 34022G27KT M03/M06 A3007 RMK A01 T10271061  RH  077%=      5-min Rain = 0
KCA1 190846Z 33023G31KT M03/M06 A3007 RMK A01 T10271061  RH  077%=      5-min Rain = 0
KCA1 190847Z 34029KT M03/M06 A3006 RMK A01 T10271061  RH  077%=      5-min Rain = 0
KCA1 190848Z 34029KT M03/M06 A3006 RMK A01 T10271061  RH  077%=      5-min Rain = 0
KCA1 190849Z 34029G35KT M03/M06 A3006 RMK A01 T10271062  RH  077%=      5-min Rain = 0
KCA1 190850Z 33029G35KT M03/M06 A3006 RMK A01 T10271062  RH  077%=      5-min Rain = 0
KCA1 190851Z 33029G34KT M03/M06 A3006 RMK A01 T10271062  RH  077%=      5-min Rain = 0
KCA1 190852Z 34030G37KT M03/M06 A3007 RMK A01 T10271062  RH  077%=      5-min Rain = 0
KCA1 190853Z 34022G28KT M03/M06 A3007 RMK A01 T10271063  RH  076%=      5-min Rain = 0
KCA1 190854Z 34022G30KT M03/M06 A3007 RMK A01 T10271063  RH  076%=      5-min Rain = 0
KCA1 190855Z 34029KT M03/M06 A3007 RMK A01 T10281063  RH  076%=      5-min Rain = 0
KCA1 190856Z 34025G32KT M03/M06 A3007 RMK A01 T10281064  RH  076%=      5-min Rain = 0
KCA1 190857Z 34026KT M03/M07 A3007 RMK A01 T10281065  RH  076%=      5-min Rain = 0
KCA1 190858Z 34028KT M03/M06 A3007 RMK A01 T10281064  RH  076%=      5-min Rain = 0
KCA1 190859Z 34028G33KT M03/M06 A3007 RMK A01 T10281064  RH  076%=      5-min Rain = 0
KCA1 190900Z 34027G32KT M03/M06 A3006 RMK A01 T10281064  RH  076%=      5-min Rain = 0
KCA1 190901Z 34026G32KT M03/M06 A3007 RMK A01 T10281064  RH  076%=      5-min Rain = 0
KCA1 190902Z 34026G33KT M03/M06 A3007 RMK A01 T10281064  RH  076%=      5-min Rain = 0
KCA1 190903Z 34022G31KT M03/M06 A3007 RMK A01 T10281064  RH  076%=      5-min Rain = 0
KCA1 190904Z 33022G27KT M03/M06 A3007 RMK A01 T10281063  RH  077%=      5-min Rain = 0
KCA1 190905Z 33023KT M03/M06 A3007 RMK A01 T10281063  RH  077%=      5-min Rain = 0
KCA1 190906Z 33022G30KT M03/M06 A3007 RMK A01 T10281063  RH  077%=      5-min Rain = 0
KCA1 190907Z 34018KT M03/M06 A3007 RMK A01 T10281063  RH  077%=      5-min Rain = 0
KCA1 190908Z 34019KT M03/M06 A3007 RMK A01 T10281062  RH  077%=      5-min Rain = 0
KCA1 190909Z 33024G34KT M03/M06 A3007 RMK A01 T10281062  RH  077%=      5-min Rain = 0
KCA1 190910Z 34024G33KT M03/M06 A3007 RMK A01 T10281063  RH  077%=      5-min Rain = 0
KCA1 190911Z 34027G34KT M03/M06 A3007 RMK A01 T10281063  RH  077%=      5-min Rain = 0
KCA1 190912Z 33027G32KT M03/M06 A3007 RMK A01 T10281063  RH  077%=      5-min Rain = 0
KCA1 190913Z 34023G31KT M03/M06 A3007 RMK A01 T10281063  RH  076%=      5-min Rain = 0
KCA1 190914Z 33029G35KT M03/M06 A3006 RMK A01 T10281064  RH  076%=      5-min Rain = 0
KCA1 190915Z 34031G36KT M03/M06 A3006 RMK A01 T10281064  RH  076%=      5-min Rain = 0
KCA1 190916Z 34029G36KT M03/M07 A3006 RMK A01 T10281065  RH  076%=      5-min Rain = 0
KCA1 190917Z 34029KT M03/M07 A3007 RMK A01 T10291066  RH  075%=      5-min Rain = 0
KCA1 190918Z 34023G29KT M03/M07 A3007 RMK A01 T10281066  RH  075%=      5-min Rain = 0
KCA1 190919Z 34024G29KT M03/M07 A3007 RMK A01 T10291066  RH  075%=      5-min Rain = 0
KCA1 190920Z 34019KT M03/M07 A3007 RMK A01 T10281066  RH  076%=      5-min Rain = 0
KCA1 190921Z 34018KT M03/M07 A3007 RMK A01 T10281065  RH  076%=      5-min Rain = 0
KCA1 190922Z 34021G31KT M03/M07 A3007 RMK A01 T10291065  RH  076%=      5-min Rain = 0
KCA1 190923Z 34025KT M03/M07 A3007 RMK A01 T10291066  RH  076%=      5-min Rain = 0
KCA1 190924Z 34026KT M03/M07 A3007 RMK A01 T10291066  RH  075%=      5-min Rain = 0
KCA1 190925Z 33023G30KT M03/M07 A3007 RMK A01 T10291066  RH  076%=      5-min Rain = 0
KCA1 190926Z 34021G27KT M03/M07 A3007 RMK A01 T10291066  RH  076%=      5-min Rain = 0
KCA1 190927Z 34019G25KT M03/M07 A3008 RMK A01 T10291066  RH  076%=      5-min Rain = 0
KCA1 190928Z 33020G28KT M03/M07 A3008 RMK A01 T10291065  RH  076%=      5-min Rain = 0
KCA1 190929Z 33025G34KT M03/M07 A3007 RMK A01 T10291065  RH  076%=      5-min Rain = 0
KCA1 190930Z 34025G30KT M03/M07 A3008 RMK A01 T10281066  RH  076%=      5-min Rain = 0
KCA1 190931Z 33022KT M03/M07 A3008 RMK A01 T10291066  RH  076%=      5-min Rain = 0
KCA1 190932Z 33022G28KT M03/M07 A3008 RMK A01 T10291065  RH  076%=      5-min Rain = 0
KCA1 190933Z 34020KT M03/M07 A3008 RMK A01 T10291065  RH  076%=      5-min Rain = 0
KCA1 190934Z 34016G21KT M03/M07 A3008 RMK A01 T10291065  RH  076%=      5-min Rain = 0
KCA1 190935Z 33023G29KT M03/M07 A3008 RMK A01 T10301065  RH  077%=      5-min Rain = 0
KCA1 190936Z 33022G27KT M03/M07 A3008 RMK A01 T10291065  RH  077%=      5-min Rain = 0
KCA1 190937Z 33020G25KT M03/M07 A3008 RMK A01 T10301065  RH  077%=      5-min Rain = 0
KCA1 190938Z 33019G24KT M03/M07 A3008 RMK A01 T10301065  RH  077%=      5-min Rain = 0
KCA1 190939Z 34018G25KT M03/M07 A3009 RMK A01 T10301065  RH  077%=      5-min Rain = 0
KCA1 190940Z 34018KT M03/M07 A3009 RMK A01 T10301065  RH  077%=      5-min Rain = 0
KCA1 190941Z 33019G24KT M03/M06 A3009 RMK A01 T10301064  RH  077%=      5-min Rain = 0
KCA1 190942Z 34019G26KT M03/M06 A3009 RMK A01 T10301064  RH  077%=      5-min Rain = 0
KCA1 190943Z 33019KT M03/M06 A3009 RMK A01 T10301064  RH  077%=      5-min Rain = 0
KCA1 190944Z 33021G26KT M03/M06 A3009 RMK A01 T10301064  RH  077%=      5-min Rain = 0
KCA1 190945Z 33018G24KT M03/M06 A3009 RMK A01 T10301064  RH  077%=      5-min Rain = 0
KCA1 190946Z 33020G25KT M03/M06 A3009 RMK A01 T10301064  RH  077%=      5-min Rain = 0
KCA1 190947Z 33020G26KT M03/M06 A3009 RMK A01 T10301064  RH  077%=      5-min Rain = 0
KCA1 190948Z 33026G31KT M03/M06 A3009 RMK A01 T10301064  RH  077%=      5-min Rain = 0
KCA1 190949Z 33024G30KT M03/M07 A3009 RMK A01 T10301065  RH  077%=      5-min Rain = 0
KCA1 190950Z 33028KT M03/M07 A3009 RMK A01 T10301066  RH  076%=      5-min Rain = 0
KCA1 190951Z 33024KT M03/M07 A3009 RMK A01 T10301066  RH  076%=      5-min Rain = 0
KCA1 190952Z 34020KT M03/M07 A301 RMK A01 T10301066  RH  076%=      5-min Rain = 0
KCA1 190953Z 34027G35KT M03/M07 A3009 RMK A01 T10301066  RH  076%=      5-min Rain = 0
KCA1 190954Z 33027G33KT M03/M07 A3009 RMK A01 T10301066  RH  076%=      5-min Rain = 0
KCA1 190955Z 34025KT M03/M07 A301 RMK A01 T10301066  RH  076%=      5-min Rain = 0
KCA1 190956Z 34025G33KT M03/M07 A301 RMK A01 T10301066  RH  076%=      5-min Rain = 0
KCA1 190957Z 33024KT M03/M07 A3009 RMK A01 T10301066  RH  076%=      5-min Rain = 0
KCA1 190958Z 33026G33KT M03/M07 A301 RMK A01 T10301066  RH  076%=      5-min Rain = 0
KCA1 190959Z 33022G27KT M03/M07 A301 RMK A01 T10291065  RH  076%=      5-min Rain = 0
KCA1 191000Z 33022G27KT M03/M07 A301 RMK A01 T10291065  RH  076%=      5-min Rain = 0
KCA1 191001Z 34019KT M03/M07 A301 RMK A01 T10301065  RH  076%=      5-min Rain = 0
KCA1 191002Z 33019G26KT M03/M07 A301 RMK A01 T10291065  RH  077%=      5-min Rain = 0
KCA1 191003Z 34022KT M03/M06 A301 RMK A01 T10291064  RH  077%=      5-min Rain = 0
KCA1 191004Z 33020KT M03/M06 A301 RMK A01 T10291064  RH  077%=      5-min Rain = 0
KCA1 191005Z 34021KT M03/M06 A301 RMK A01 T10291064  RH  077%=      5-min Rain = 0
KCA1 191006Z 33019KT M03/M06 A301 RMK A01 T10291064  RH  077%=      5-min Rain = 0
KCA1 191007Z 33022KT M03/M06 A301 RMK A01 T10291063  RH  077%=      5-min Rain = 0
KCA1 191008Z 33020KT M03/M06 A301 RMK A01 T10291063  RH  077%=      5-min Rain = 0
KCA1 191009Z 33018G23KT M03/M06 A301 RMK A01 T10291063  RH  077%=      5-min Rain = 0
KCA1 191010Z 33019KT M03/M06 A301 RMK A01 T10291063  RH  077%=      5-min Rain = 0
KCA1 191011Z 33018G24KT M03/M06 A301 RMK A01 T10291063  RH  077%=      5-min Rain = 0
KCA1 191012Z 33020G25KT M03/M06 A301 RMK A01 T10291063  RH  077%=      5-min Rain = 0
KCA1 191013Z 34019KT M03/M06 A301 RMK A01 T10291063  RH  077%=      5-min Rain = 0
KCA1 191014Z 34020KT M03/M06 A301 RMK A01 T10291063  RH  077%=      5-min Rain = 0
KCA1 191015Z 33019KT M03/M06 A301 RMK A01 T10291063  RH  077%=      5-min Rain = 0
KCA1 191016Z 33017G22KT M03/M06 A301 RMK A01 T10291064  RH  077%=      5-min Rain = 0
KCA1 191017Z 33017G22KT M03/M06 A301 RMK A01 T10301064  RH  077%=      5-min Rain = 0
KCA1 191018Z 33016KT M03/M07 A301 RMK A01 T10311065  RH  077%=      5-min Rain = 0
KCA1 191019Z 33020KT M03/M07 A301 RMK A01 T10311065  RH  077%=      5-min Rain = 0
KCA1 191020Z 33018KT M03/M07 A301 RMK A01 T10311065  RH  077%=      5-min Rain = 0
KCA1 191021Z 33017KT M03/M07 A301 RMK A01 T10321066  RH  077%=      5-min Rain = 0
KCA1 191022Z 33012KT M03/M07 A301 RMK A01 T10321066  RH  078%=      5-min Rain = 0
KCA1 191023Z 33016KT M03/M07 A301 RMK A01 T10331066  RH  078%=      5-min Rain = 0
KCA1 191024Z 33018KT M03/M07 A301 RMK A01 T10341067  RH  078%=      5-min Rain = 0
KCA1 191025Z 32018KT M03/M07 A301 RMK A01 T10341067  RH  078%=      5-min Rain = 0
KCA1 191026Z 32017G23KT M04/M07 A3011 RMK A01 T10351067  RH  078%=      5-min Rain = 0
KCA1 191027Z 33017KT M04/M07 A3011 RMK A01 T10351068  RH  078%=      5-min Rain = 0
KCA1 191028Z 33019G24KT M04/M07 A3011 RMK A01 T10351068  RH  078%=      5-min Rain = 0
KCA1 191029Z 33019KT M04/M07 A3011 RMK A01 T10351068  RH  078%=      5-min Rain = 0
KCA1 191030Z 32017KT M04/M07 A3011 RMK A01 T10361069  RH  078%=      5-min Rain = 0
KCA1 191031Z 32014KT M04/M07 A3011 RMK A01 T10361069  RH  078%=      5-min Rain = 0
KCA1 191032Z 33018KT M04/M07 A3011 RMK A01 T10371070  RH  078%=      5-min Rain = 0
KCA1 191033Z 33017G22KT M04/M07 A3011 RMK A01 T10371070  RH  078%=      5-min Rain = 0
KCA1 191034Z 33014KT M04/M07 A3011 RMK A01 T10371070  RH  078%=      5-min Rain = 0
KCA1 191035Z 33015KT M04/M07 A3011 RMK A01 T10381071  RH  078%=      5-min Rain = 0
KCA1 191036Z 33015KT M04/M07 A3011 RMK A01 T10381071  RH  078%=      5-min Rain = 0
KCA1 191037Z 33017KT M04/M07 A3011 RMK A01 T10381071  RH  078%=      5-min Rain = 0
KCA1 191038Z 33018KT M04/M07 A3012 RMK A01 T10381072  RH  078%=      5-min Rain = 0
KCA1 191039Z 33015KT M04/M07 A3012 RMK A01 T10381072  RH  077%=      5-min Rain = 0
KCA1 191040Z 32017KT M04/M07 A3012 RMK A01 T10381072  RH  077%=      5-min Rain = 0
KCA1 191041Z 33020G25KT M04/M07 A3012 RMK A01 T10391073  RH  077%=      5-min Rain = 0
KCA1 191042Z 33016KT M04/M07 A3012 RMK A01 T10391073  RH  077%=      5-min Rain = 0
KCA1 191043Z 33017G26KT M04/M07 A3012 RMK A01 T10381073  RH  077%=      5-min Rain = 0
KCA1 191044Z 32017KT M04/M07 A3012 RMK A01 T10391073  RH  077%=      5-min Rain = 0
KCA1 191045Z 32012KT M04/M07 A3012 RMK A01 T10391074  RH  077%=      5-min Rain = 0
KCA1 191046Z 32017KT M04/M07 A3012 RMK A01 T10391074  RH  077%=      5-min Rain = 0
KCA1 191047Z 33016G22KT M04/M07 A3012 RMK A01 T10401074  RH  077%=      5-min Rain = 0
KCA1 191048Z 32015KT M04/M07 A3012 RMK A01 T10401074  RH  077%=      5-min Rain = 0
KCA1 191049Z 32015G20KT M04/M07 A3012 RMK A01 T10401074  RH  077%=      5-min Rain = 0
KCA1 191050Z 33015KT M04/M07 A3012 RMK A01 T10401074  RH  077%=      5-min Rain = 0
KCA1 191051Z 32014KT M04/M07 A3013 RMK A01 T10401074  RH  077%=      5-min Rain = 0
KCA1 191052Z 32016KT M04/M07 A3013 RMK A01 T10401074  RH  077%=      5-min Rain = 0
KCA1 191053Z 32016KT M04/M07 A3013 RMK A01 T10401074  RH  077%=      5-min Rain = 0
KCA1 191054Z 32016KT M04/M07 A3013 RMK A01 T10411074  RH  077%=      5-min Rain = 0
KCA1 191055Z 32013KT M04/M07 A3013 RMK A01 T10401074  RH  077%=      5-min Rain = 0
KCA1 191056Z 32011G17KT M04/M07 A3012 RMK A01 T10411074  RH  078%=      5-min Rain = 0
KCA1 191057Z 33015KT M04/M07 A3013 RMK A01 T10411074  RH  078%=      5-min Rain = 0
KCA1 191058Z 33014G19KT M04/M07 A3013 RMK A01 T10421074  RH  078%=      5-min Rain = 0
KCA1 191059Z 32014KT M04/M07 A3013 RMK A01 T10421074  RH  078%=      5-min Rain = 0
KCA1 191100Z 32011KT M04/M07 A3013 RMK A01 T10411074  RH  078%=      5-min Rain = 0
KCA1 191101Z 32013KT M04/M08 A3013 RMK A01 T10421075  RH  078%=      5-min Rain = 0
KCA1 191102Z 32015G20KT M04/M08 A3013 RMK A01 T10421075  RH  078%=      5-min Rain = 0
KCA1 191103Z 33016KT M04/M08 A3013 RMK A01 T10431075  RH  078%=      5-min Rain = 0
KCA1 191104Z 32012KT M04/M07 A3013 RMK A01 T10421074  RH  078%=      5-min Rain = 0
KCA1 191105Z 33012KT M04/M07 A3013 RMK A01 T10421074  RH  078%=      5-min Rain = 0
KCA1 191106Z 33012KT M04/M07 A3013 RMK A01 T10421074  RH  078%=      5-min Rain = 0
KCA1 191107Z 32013KT M04/M07 A3013 RMK A01 T10431074  RH  078%=      5-min Rain = 0
KCA1 191108Z 32012KT M04/M08 A3013 RMK A01 T10431075  RH  079%=      5-min Rain = 0
KCA1 191109Z 32013KT M04/M07 A3013 RMK A01 T10431074  RH  079%=      5-min Rain = 0
KCA1 191110Z 32012KT M04/M07 A3013 RMK A01 T10421074  RH  079%=      5-min Rain = 0
KCA1 191111Z 32014KT M04/M07 A3013 RMK A01 T10431074  RH  079%=      5-min Rain = 0
KCA1 191112Z 32015KT M04/M07 A3013 RMK A01 T10431074  RH  079%=      5-min Rain = 0
KCA1 191113Z 32014KT M04/M07 A3013 RMK A01 T10431074  RH  079%=      5-min Rain = 0
KCA1 191114Z 32014G19KT M04/M07 A3013 RMK A01 T10431074  RH  079%=      5-min Rain = 0
KCA1 191115Z 32015KT M04/M07 A3013 RMK A01 T10431074  RH  079%=      5-min Rain = 0
KCA1 191116Z 31011KT M04/M08 A3013 RMK A01 T10431075  RH  079%=      5-min Rain = 0
KCA1 191117Z 31014KT M04/M07 A3013 RMK A01 T10431074  RH  079%=      5-min Rain = 0
KCA1 191118Z 32014KT M04/M08 A3013 RMK A01 T10441075  RH  079%=      5-min Rain = 0
KCA1 191119Z 32014KT M04/M07 A3013 RMK A01 T10431074  RH  079%=      5-min Rain = 0
KCA1 191120Z 32012KT M04/M08 A3013 RMK A01 T10431075  RH  079%=      5-min Rain = 0
KCA1 191121Z 32014KT M04/M08 A3013 RMK A01 T10431075  RH  079%=      5-min Rain = 0
KCA1 191122Z 32012KT M04/M08 A3013 RMK A01 T10441075  RH  079%=      5-min Rain = 0
KCA1 191123Z 31011KT M04/M08 A3013 RMK A01 T10441075  RH  079%=      5-min Rain = 0
KCA1 191124Z 32011G16KT M04/M08 A3013 RMK A01 T10441075  RH  079%=      5-min Rain = 0
KCA1 191125Z 32011G17KT M05/M08 A3013 RMK A01 T10451076  RH  079%=      5-min Rain = 0
KCA1 191126Z 32015KT M04/M08 A3013 RMK A01 T10441076  RH  079%=      5-min Rain = 0
KCA1 191127Z 32014G19KT M04/M08 A3014 RMK A01 T10441076  RH  079%=      5-min Rain = 0
KCA1 191128Z 32016KT M04/M08 A3014 RMK A01 T10441076  RH  078%=      5-min Rain = 0
KCA1 191129Z 32014KT M04/M08 A3014 RMK A01 T10441076  RH  078%=      5-min Rain = 0
KCA1 191130Z 32014KT M04/M08 A3014 RMK A01 T10441077  RH  078%=      5-min Rain = 0
KCA1 191131Z 32012KT M04/M08 A3014 RMK A01 T10441077  RH  078%=      5-min Rain = 0
KCA1 191132Z 31015KT M04/M08 A3014 RMK A01 T10441077  RH  078%=      5-min Rain = 0
KCA1 191133Z 32013KT M04/M08 A3014 RMK A01 T10441077  RH  078%=      5-min Rain = 0
KCA1 191134Z 32013KT M04/M08 A3014 RMK A01 T10441077  RH  078%=      5-min Rain = 0
KCA1 191135Z 32013KT M04/M08 A3014 RMK A01 T10441077  RH  078%=      5-min Rain = 0
KCA1 191136Z 32013KT M05/M08 A3014 RMK A01 T10451077  RH  078%=      5-min Rain = 0
KCA1 191137Z 32013KT M05/M08 A3014 RMK A01 T10451077  RH  078%=      5-min Rain = 0
KCA1 191138Z 32012KT M05/M08 A3015 RMK A01 T10451077  RH  078%=      5-min Rain = 0
KCA1 191139Z 32013G18KT M05/M08 A3015 RMK A01 T10451077  RH  078%=      5-min Rain = 0
KCA1 191140Z 32014KT M04/M08 A3015 RMK A01 T10441078  RH  078%=      5-min Rain = 0
KCA1 191141Z 32013KT M04/M08 A3015 RMK A01 T10441078  RH  078%=      5-min Rain = 0
KCA1 191142Z 32013KT M04/M08 A3015 RMK A01 T10441078  RH  077%=      5-min Rain = 0
KCA1 191143Z 32015KT M05/M08 A3015 RMK A01 T10451078  RH  077%=      5-min Rain = 0
KCA1 191144Z 32016KT M05/M08 A3015 RMK A01 T10451078  RH  077%=      5-min Rain = 0
KCA1 191145Z 32015KT M04/M08 A3015 RMK A01 T10441078  RH  077%=      5-min Rain = 0
KCA1 191146Z 32014KT M04/M08 A3015 RMK A01 T10441078  RH  077%=      5-min Rain = 0
KCA1 191147Z 32013KT M04/M08 A3015 RMK A01 T10441078  RH  077%=      5-min Rain = 0
KCA1 191148Z 32012KT M04/M08 A3015 RMK A01 T10441078  RH  077%=      5-min Rain = 0
KCA1 191149Z 32011KT M05/M08 A3015 RMK A01 T10451079  RH  077%=      5-min Rain = 0
KCA1 191150Z 31010KT M05/M08 A3015 RMK A01 T10451078  RH  078%=      5-min Rain = 0
KCA1 191151Z 32014KT M05/M08 A3015 RMK A01 T10461078  RH  078%=      5-min Rain = 0
KCA1 191152Z 33013KT M05/M08 A3015 RMK A01 T10461078  RH  078%=      5-min Rain = 0
KCA1 191153Z 32012KT M05/M08 A3015 RMK A01 T10461079  RH  078%=      5-min Rain = 0
KCA1 191154Z 33013KT M05/M08 A3015 RMK A01 T10461079  RH  078%=      5-min Rain = 0
KCA1 191155Z 33013KT M05/M08 A3015 RMK A01 T10451078  RH  078%=      5-min Rain = 0
KCA1 191156Z 32014KT M05/M08 A3015 RMK A01 T10461079  RH  078%=      5-min Rain = 0
KCA1 191157Z 32013KT M05/M08 A3015 RMK A01 T10461079  RH  078%=      5-min Rain = 0
KCA1 191158Z 32014KT M05/M08 A3015 RMK A01 T10461079  RH  078%=      5-min Rain = 0
KCA1 191159Z 33013G19KT M05/M08 A3015 RMK A01 T10461079  RH  078%=      5-min Rain = 0
KCA1 191200Z 32015G20KT M05/M08 A3015 RMK A01 T10461079  RH  077%=      5-min Rain = 0
KCA1 191201Z 32014KT M05/M08 A3015 RMK A01 T10461080  RH  077%=      5-min Rain = 0
KCA1 191202Z 32016KT M05/M08 A3015 RMK A01 T10461080  RH  077%=      5-min Rain = 0
KCA1 191203Z 33017KT M05/M08 A3015 RMK A01 T10461080  RH  077%=      5-min Rain = 0
KCA1 191204Z 33014KT M05/M08 A3015 RMK A01 T10461080  RH  077%=      5-min Rain = 0
KCA1 191205Z 33017KT M05/M08 A3016 RMK A01 T10451080  RH  077%=      5-min Rain = 0
KCA1 191206Z 33016KT M05/M08 A3015 RMK A01 T10451080  RH  077%=      5-min Rain = 0
KCA1 191207Z 33019KT M05/M08 A3015 RMK A01 T10451080  RH  077%=      5-min Rain = 0
KCA1 191208Z 32016KT M05/M08 A3015 RMK A01 T10461081  RH  076%=      5-min Rain = 0
KCA1 191209Z 33015KT M05/M08 A3016 RMK A01 T10461081  RH  076%=      5-min Rain = 0
KCA1 191210Z 33015KT M05/M08 A3016 RMK A01 T10451081  RH  076%=      5-min Rain = 0
KCA1 191211Z 33018G24KT M05/M08 A3016 RMK A01 T10461081  RH  077%=      5-min Rain = 0
KCA1 191212Z 33019G24KT M05/M08 A3016 RMK A01 T10451081  RH  076%=      5-min Rain = 0
KCA1 191213Z 33018KT M05/M08 A3016 RMK A01 T10451081  RH  076%=      5-min Rain = 0
KCA1 191214Z 34015KT M05/M08 A3016 RMK A01 T10451081  RH  076%=      5-min Rain = 0
KCA1 191215Z 33018KT M05/M08 A3016 RMK A01 T10461081  RH  076%=      5-min Rain = 0
KCA1 191216Z 33017G22KT M05/M08 A3016 RMK A01 T10451081  RH  076%=      5-min Rain = 0
KCA1 191217Z 33015KT M05/M08 A3016 RMK A01 T10451081  RH  076%=      5-min Rain = 0
KCA1 191218Z 33016KT M05/M08 A3016 RMK A01 T10461081  RH  076%=      5-min Rain = 0
KCA1 191219Z 33015G20KT M05/M08 A3016 RMK A01 T10461081  RH  076%=      5-min Rain = 0
KCA1 191220Z 33016KT M05/M08 A3016 RMK A01 T10461081  RH  076%=      5-min Rain = 0
KCA1 191221Z 33015KT M05/M08 A3016 RMK A01 T10461081  RH  076%=      5-min Rain = 0
KCA1 191222Z 34016KT M05/M08 A3016 RMK A01 T10461081  RH  076%=      5-min Rain = 0
KCA1 191223Z 33014KT M05/M08 A3017 RMK A01 T10461081  RH  077%=      5-min Rain = 0
KCA1 191224Z 33016G22KT M05/M08 A3016 RMK A01 T10471081  RH  077%=      5-min Rain = 0
KCA1 191225Z 33017KT M05/M08 A3016 RMK A01 T10471082  RH  077%=      5-min Rain = 0
KCA1 191226Z 33017KT M05/M08 A3016 RMK A01 T10471081  RH  077%=      5-min Rain = 0
KCA1 191227Z 33016KT M05/M08 A3016 RMK A01 T10471081  RH  077%=      5-min Rain = 0
KCA1 191228Z 33013KT M05/M08 A3017 RMK A01 T10471081  RH  077%=      5-min Rain = 0
KCA1 191229Z 33014KT M05/M08 A3017 RMK A01 T10471081  RH  077%=      5-min Rain = 0
KCA1 191230Z 33012KT M05/M08 A3016 RMK A01 T10471081  RH  077%=      5-min Rain = 0
KCA1 191231Z 33013KT M05/M08 A3016 RMK A01 T10471081  RH  078%=      5-min Rain = 0
KCA1 191232Z 33016KT M05/M08 A3016 RMK A01 T10481081  RH  078%=      5-min Rain = 0
KCA1 191233Z 33013KT M05/M08 A3016 RMK A01 T10481081  RH  078%=      5-min Rain = 0
KCA1 191234Z 33015KT M05/M08 A3016 RMK A01 T10481081  RH  078%=      5-min Rain = 0
KCA1 191235Z 32017KT M05/M08 A3016 RMK A01 T10481081  RH  078%=      5-min Rain = 0
KCA1 191236Z 33014KT M05/M08 A3016 RMK A01 T10471080  RH  078%=      5-min Rain = 0
KCA1 191237Z 33016G21KT M05/M08 A3016 RMK A01 T10471080  RH  078%=      5-min Rain = 0
KCA1 191238Z 33015KT M05/M08 A3017 RMK A01 T10471080  RH  078%=      5-min Rain = 0
KCA1 191239Z 33016G22KT M05/M08 A3017 RMK A01 T10471080  RH  078%=      5-min Rain = 0
KCA1 191240Z 33014KT M05/M08 A3017 RMK A01 T10471080  RH  078%=      5-min Rain = 0
KCA1 191241Z 33017KT M05/M08 A3017 RMK A01 T10471080  RH  078%=      5-min Rain = 0
KCA1 191242Z 33013KT M05/M08 A3017 RMK A01 T10471080  RH  078%=      5-min Rain = 0
KCA1 191243Z 33014KT M05/M08 A3017 RMK A01 T10471080  RH  078%=      5-min Rain = 0
KCA1 191244Z 33016KT M05/M08 A3017 RMK A01 T10471079  RH  078%=      5-min Rain = 0
KCA1 191245Z 33016G21KT M05/M08 A3017 RMK A01 T10481080  RH  078%=      5-min Rain = 0
KCA1 191246Z 33017KT M05/M08 A3017 RMK A01 T10471079  RH  078%=      5-min Rain = 0
KCA1 191247Z 33017KT M05/M08 A3017 RMK A01 T10471079  RH  078%=      5-min Rain = 0
KCA1 191248Z 33017KT M05/M08 A3017 RMK A01 T10471079  RH  078%=      5-min Rain = 0
KCA1 191249Z 33016KT M05/M08 A3017 RMK A01 T10471080  RH  078%=      5-min Rain = 0
KCA1 191250Z 33017G22KT M05/M08 A3017 RMK A01 T10471080  RH  078%=      5-min Rain = 0
KCA1 191251Z 33019G25KT M05/M08 A3017 RMK A01 T10471080  RH  078%=      5-min Rain = 0
KCA1 191252Z 33016KT M05/M08 A3017 RMK A01 T10461079  RH  078%=      5-min Rain = 0
KCA1 191253Z 33017G22KT M05/M08 A3018 RMK A01 T10461080  RH  078%=      5-min Rain = 0
KCA1 191254Z 33019KT M05/M08 A3017 RMK A01 T10471080  RH  078%=      5-min Rain = 0
KCA1 191255Z 33015G20KT M05/M08 A3018 RMK A01 T10461079  RH  078%=      5-min Rain = 0
KCA1 191256Z 33014KT M05/M08 A3018 RMK A01 T10461080  RH  078%=      5-min Rain = 0
KCA1 191257Z 33014KT M05/M08 A3018 RMK A01 T10461079  RH  078%=      5-min Rain = 0
KCA1 191258Z 33017KT M05/M08 A3018 RMK A01 T10471079  RH  078%=      5-min Rain = 0
KCA1 191259Z 33017KT M05/M08 A3018 RMK A01 T10471080  RH  078%=      5-min Rain = 0
KCA1 191300Z 33014G21KT M05/M08 A3018 RMK A01 T10471079  RH  078%=      5-min Rain = 0
KCA1 191301Z 33014G20KT M05/M08 A3018 RMK A01 T10471080  RH  078%=      5-min Rain = 0
KCA1 191302Z 33016KT M05/M08 A3018 RMK A01 T10471080  RH  078%=      5-min Rain = 0
KCA1 191303Z 33017KT M05/M08 A3018 RMK A01 T10471080  RH  078%=      5-min Rain = 0
KCA1 191304Z 33019G24KT M05/M08 A3018 RMK A01 T10471080  RH  078%=      5-min Rain = 0
KCA1 191305Z 33017KT M05/M08 A3018 RMK A01 T10461080  RH  077%=      5-min Rain = 0
KCA1 191306Z 33019KT M05/M08 A3018 RMK A01 T10461080  RH  077%=      5-min Rain = 0
KCA1 191307Z 33018KT M05/M08 A3018 RMK A01 T10461081  RH  077%=      5-min Rain = 0
KCA1 191308Z 33015KT M05/M08 A3018 RMK A01 T10461081  RH  077%=      5-min Rain = 0
KCA1 191309Z 33012KT M05/M08 A3019 RMK A01 T10461081  RH  077%=      5-min Rain = 0
KCA1 191310Z 33013KT M05/M08 A3019 RMK A01 T10461081  RH  077%=      5-min Rain = 0
KCA1 191311Z 33017KT M05/M08 A3019 RMK A01 T10471081  RH  077%=      5-min Rain = 0
KCA1 191312Z 33017KT M05/M08 A3019 RMK A01 T10471081  RH  077%=      5-min Rain = 0
KCA1 191313Z 33019KT M05/M08 A3019 RMK A01 T10471081  RH  077%=      5-min Rain = 0
KCA1 191314Z 33018KT M05/M08 A3019 RMK A01 T10461080  RH  077%=      5-min Rain = 0
KCA1 191315Z 33017G22KT M05/M08 A3019 RMK A01 T10461081  RH  077%=      5-min Rain = 0
KCA1 191316Z 33013G19KT M05/M08 A3019 RMK A01 T10461081  RH  077%=      5-min Rain = 0
KCA1 191317Z 33018KT M05/M08 A3019 RMK A01 T10471081  RH  077%=      5-min Rain = 0
KCA1 191318Z 33018KT M05/M08 A3019 RMK A01 T10471080  RH  077%=      5-min Rain = 0
KCA1 191319Z 33016KT M05/M08 A3019 RMK A01 T10461080  RH  077%=      5-min Rain = 0
KCA1 191320Z 33014KT M05/M08 A3019 RMK A01 T10461080  RH  077%=      5-min Rain = 0
KCA1 191321Z 33013KT M05/M08 A3019 RMK A01 T10471081  RH  077%=      5-min Rain = 0
KCA1 191322Z 33011KT M05/M08 A3019 RMK A01 T10471080  RH  078%=      5-min Rain = 0
KCA1 191323Z 33015G20KT M05/M08 A3019 RMK A01 T10481080  RH  078%=      5-min Rain = 0
KCA1 191324Z 33015KT M05/M08 A3019 RMK A01 T10481080  RH  078%=      5-min Rain = 0
KCA1 191325Z 33014KT M05/M08 A3019 RMK A01 T10481081  RH  078%=      5-min Rain = 0
KCA1 191326Z 33018KT M05/M08 A3019 RMK A01 T10481080  RH  078%=      5-min Rain = 0
KCA1 191327Z 33016KT M05/M08 A3019 RMK A01 T10481080  RH  078%=      5-min Rain = 0
KCA1 191328Z 33017KT M05/M08 A3019 RMK A01 T10471080  RH  078%=      5-min Rain = 0
KCA1 191329Z 33017KT M05/M08 A3019 RMK A01 T10471080  RH  078%=      5-min Rain = 0
KCA1 191330Z 33014G21KT M05/M08 A302 RMK A01 T10471080  RH  078%=      5-min Rain = 0
KCA1 191331Z 33017KT M05/M08 A302 RMK A01 T10471080  RH  078%=      5-min Rain = 0
KCA1 191332Z 33017KT M05/M08 A302 RMK A01 T10471080  RH  078%=      5-min Rain = 0
KCA1 191333Z 33015KT M05/M08 A302 RMK A01 T10471080  RH  078%=      5-min Rain = 0
KCA1 191334Z 33015KT M05/M08 A302 RMK A01 T10471080  RH  078%=      5-min Rain = 0
KCA1 191335Z 32015KT M05/M08 A302 RMK A01 T10471080  RH  078%=      5-min Rain = 0
KCA1 191336Z 32016KT M05/M08 A302 RMK A01 T10471080  RH  078%=      5-min Rain = 0
KCA1 191337Z 32017KT M05/M08 A302 RMK A01 T10471080  RH  078%=      5-min Rain = 0
KCA1 191338Z 33014KT M05/M08 A302 RMK A01 T10471080  RH  078%=      5-min Rain = 0
KCA1 191339Z 32014KT M05/M08 A302 RMK A01 T10471081  RH  078%=      5-min Rain = 0
KCA1 191340Z 32013KT M05/M08 A302 RMK A01 T10471081  RH  078%=      5-min Rain = 0
KCA1 191341Z 32012KT M05/M08 A302 RMK A01 T10481081  RH  078%=      5-min Rain = 0
KCA1 191342Z 32013KT M05/M08 A302 RMK A01 T10491081  RH  078%=      5-min Rain = 0
KCA1 191343Z 32012KT M05/M08 A302 RMK A01 T10491080  RH  078%=      5-min Rain = 0
KCA1 191344Z 32013KT M05/M08 A302 RMK A01 T10481080  RH  079%=      5-min Rain = 0
KCA1 191345Z 32015KT M05/M08 A302 RMK A01 T10491080  RH  079%=      5-min Rain = 0
KCA1 191346Z 32014KT M05/M08 A302 RMK A01 T10491080  RH  079%=      5-min Rain = 0
KCA1 191347Z 32013KT M05/M08 A3021 RMK A01 T10491080  RH  079%=      5-min Rain = 0
KCA1 191348Z 32015G20KT M05/M08 A3021 RMK A01 T10491080  RH  078%=      5-min Rain = 0
KCA1 191349Z 32015KT M05/M08 A3021 RMK A01 T10491081  RH  078%=      5-min Rain = 0
KCA1 191350Z 32014KT M05/M08 A3021 RMK A01 T10481080  RH  078%=      5-min Rain = 0
KCA1 191351Z 32013KT M05/M08 A3021 RMK A01 T10481080  RH  078%=      5-min Rain = 0
KCA1 191352Z 32016KT M05/M08 A3021 RMK A01 T10481080  RH  078%=      5-min Rain = 0
KCA1 191353Z 32015G22KT M05/M08 A3021 RMK A01 T10481081  RH  078%=      5-min Rain = 0
KCA1 191354Z 31018KT M05/M08 A3021 RMK A01 T10481081  RH  078%=      5-min Rain = 0
KCA1 191355Z 32013KT M05/M08 A3021 RMK A01 T10471081  RH  077%=      5-min Rain = 0
KCA1 191356Z 32013G18KT M05/M08 A3021 RMK A01 T10471081  RH  077%=      5-min Rain = 0
KCA1 191357Z 32015G20KT M05/M08 A3021 RMK A01 T10481081  RH  077%=      5-min Rain = 0
KCA1 191358Z 33016G21KT M05/M08 A3021 RMK A01 T10481082  RH  077%=      5-min Rain = 0
KCA1 191359Z 33015G20KT M05/M08 A3021 RMK A01 T10481082  RH  077%=      5-min Rain = 0
KCA1 191400Z 33016KT M05/M08 A3021 RMK A01 T10481082  RH  077%=      5-min Rain = 0
KCA1 191401Z 33016KT M05/M08 A3021 RMK A01 T10481082  RH  077%=      5-min Rain = 0
KCA1 191402Z 33014KT M05/M08 A3021 RMK A01 T10481082  RH  077%=      5-min Rain = 0
KCA1 191403Z 33016KT M05/M08 A3022 RMK A01 T10481082  RH  077%=      5-min Rain = 0
KCA1 191404Z 33012KT M05/M08 A3022 RMK A01 T10471082  RH  077%=      5-min Rain = 0
KCA1 191405Z 33015KT M05/M08 A3022 RMK A01 T10471082  RH  077%=      5-min Rain = 0
KCA1 191406Z 33013KT M05/M08 A3022 RMK A01 T10481082  RH  077%=      5-min Rain = 0
KCA1 191407Z 33014KT M05/M08 A3022 RMK A01 T10481082  RH  077%=      5-min Rain = 0
KCA1 191408Z 33014KT M05/M08 A3022 RMK A01 T10481083  RH  077%=      5-min Rain = 0
KCA1 191409Z 33012KT M05/M08 A3022 RMK A01 T10481083  RH  077%=      5-min Rain = 0
KCA1 191410Z 33011KT M05/M08 A3022 RMK A01 T10481083  RH  076%=      5-min Rain = 0
KCA1 191411Z 33012KT M05/M08 A3022 RMK A01 T10481083  RH  077%=      5-min Rain = 0
KCA1 191412Z 33012KT M05/M08 A3022 RMK A01 T10481083  RH  077%=      5-min Rain = 0
KCA1 191413Z 33012KT M05/M08 A3022 RMK A01 T10481082  RH  077%=      5-min Rain = 0
KCA1 191414Z 33011KT M05/M08 A3022 RMK A01 T10481083  RH  077%=      5-min Rain = 0
KCA1 191415Z 33012KT M05/M08 A3022 RMK A01 T10481083  RH  077%=      5-min Rain = 0
KCA1 191416Z 32013KT M05/M08 A3022 RMK A01 T10481083  RH  077%=      5-min Rain = 0
KCA1 191417Z 33011KT M05/M08 A3022 RMK A01 T10481083  RH  076%=      5-min Rain = 0
KCA1 191418Z 33011KT M05/M08 A3023 RMK A01 T10471082  RH  077%=      5-min Rain = 0
KCA1 191419Z 33011KT M05/M08 A3023 RMK A01 T10481083  RH  077%=      5-min Rain = 0
KCA1 191420Z 32015KT M05/M08 A3022 RMK A01 T10481083  RH  077%=      5-min Rain = 0
KCA1 191421Z 34015KT M05/M08 A3023 RMK A01 T10471083  RH  076%=      5-min Rain = 0
KCA1 191422Z 33014KT M05/M08 A3023 RMK A01 T10461082  RH  076%=      5-min Rain = 0
KCA1 191423Z 33015KT M05/M08 A3023 RMK A01 T10471083  RH  076%=      5-min Rain = 0
KCA1 191424Z 33012KT M05/M08 A3023 RMK A01 T10471083  RH  076%=      5-min Rain = 0
KCA1 191425Z 32013KT M05/M08 A3023 RMK A01 T10461083  RH  076%=      5-min Rain = 0
KCA1 191426Z 33012KT M05/M08 A3023 RMK A01 T10461082  RH  076%=      5-min Rain = 0
KCA1 191427Z 33012KT M05/M08 A3023 RMK A01 T10461083  RH  076%=      5-min Rain = 0
KCA1 191428Z 32012KT M05/M08 A3023 RMK A01 T10461083  RH  076%=      5-min Rain = 0
KCA1 191429Z 33017KT M05/M08 A3023 RMK A01 T10461082  RH  076%=      5-min Rain = 0
KCA1 191430Z 33014KT M05/M08 A3023 RMK A01 T10461083  RH  075%=      5-min Rain = 0
KCA1 191431Z 34013KT M05/M08 A3023 RMK A01 T10451083  RH  075%=      5-min Rain = 0
KCA1 191432Z 33015KT M05/M08 A3023 RMK A01 T10451083  RH  075%=      5-min Rain = 0
KCA1 191433Z 33015KT M05/M08 A3024 RMK A01 T10451083  RH  075%=      5-min Rain = 0
KCA1 191434Z 33014KT M05/M08 A3024 RMK A01 T10451083  RH  075%=      5-min Rain = 0
KCA1 191435Z 34012KT M04/M08 A3024 RMK A01 T10441083  RH  075%=      5-min Rain = 0
KCA1 191436Z 33015G21KT M04/M08 A3024 RMK A01 T10441083  RH  075%=      5-min Rain = 0
KCA1 191437Z 34018KT M04/M08 A3024 RMK A01 T10441083  RH  074%=      5-min Rain = 0
KCA1 191438Z 33019G24KT M04/M08 A3024 RMK A01 T10441084  RH  074%=      5-min Rain = 0
KCA1 191439Z 34018KT M04/M08 A3024 RMK A01 T10441084  RH  074%=      5-min Rain = 0
KCA1 191440Z 34012KT M04/M08 A3024 RMK A01 T10441084  RH  074%=      5-min Rain = 0
KCA1 191441Z 33015KT M04/M08 A3024 RMK A01 T10441083  RH  074%=      5-min Rain = 0
KCA1 191442Z 34016KT M04/M08 A3024 RMK A01 T10431083  RH  073%=      5-min Rain = 0
KCA1 191443Z 33012KT M04/M08 A3024 RMK A01 T10431084  RH  073%=      5-min Rain = 0
KCA1 191444Z 34015KT M04/M08 A3024 RMK A01 T10421083  RH  073%=      5-min Rain = 0
KCA1 191445Z 34015KT M04/M08 A3024 RMK A01 T10421084  RH  073%=      5-min Rain = 0
KCA1 191446Z 34014KT M04/M08 A3024 RMK A01 T10421084  RH  073%=      5-min Rain = 0
KCA1 191447Z 34016KT M04/M08 A3024 RMK A01 T10421084  RH  072%=      5-min Rain = 0
KCA1 191448Z 34019KT M04/M08 A3024 RMK A01 T10421084  RH  072%=      5-min Rain = 0
KCA1 191449Z 34021KT M04/M09 A3024 RMK A01 T10421085  RH  072%=      5-min Rain = 0
KCA1 191450Z 33019KT M04/M09 A3024 RMK A01 T10421086  RH  071%=      5-min Rain = 0
KCA1 191451Z 33019KT M04/M09 A3024 RMK A01 T10421086  RH  071%=      5-min Rain = 0
KCA1 191452Z 33018KT M04/M09 A3024 RMK A01 T10411086  RH  071%=      5-min Rain = 0
KCA1 191453Z 34016G21KT M04/M09 A3024 RMK A01 T10421088  RH  070%=      5-min Rain = 0
KCA1 191454Z 33020G25KT M04/M09 A3024 RMK A01 T10411088  RH  070%=      5-min Rain = 0
KCA1 191455Z 33017KT M04/M09 A3024 RMK A01 T10411089  RH  069%=      5-min Rain = 0
KCA1 191456Z 33017KT M04/M09 A3024 RMK A01 T10411089  RH  069%=      5-min Rain = 0
KCA1 191457Z 33021KT M04/M09 A3024 RMK A01 T10411089  RH  069%=      5-min Rain = 0
KCA1 191458Z 33020KT M04/M09 A3025 RMK A01 T10411091  RH  069%=      5-min Rain = 0
KCA1 191459Z 33021KT M04/M09 A3024 RMK A01 T10411091  RH  068%=      5-min Rain = 0
KCA1 191500Z 33016KT M04/M09 A3025 RMK A01 T10411092  RH  068%=      5-min Rain = 0
KCA1 191501Z 34016KT M04/M09 A3025 RMK A01 T10411091  RH  068%=      5-min Rain = 0
KCA1 191502Z 34017KT M04/M09 A3025 RMK A01 T10411091  RH  068%=      5-min Rain = 0
KCA1 191503Z 34016G21KT M04/M09 A3025 RMK A01 T10401091  RH  068%=      5-min Rain = 0
KCA1 191504Z 35018G23KT M04/M09 A3025 RMK A01 T10401091  RH  067%=      5-min Rain = 0
KCA1 191505Z 34018KT M04/M09 A3025 RMK A01 T10401092  RH  067%=      5-min Rain = 0
KCA1 191506Z 34020G25KT M04/M09 A3025 RMK A01 T10391093  RH  066%=      5-min Rain = 0
KCA1 191507Z 35020KT M04/M10 A3025 RMK A01 T10401095  RH  066%=      5-min Rain = 0
KCA1 191508Z 35019KT M04/M10 A3025 RMK A01 T10401096  RH  065%=      5-min Rain = 0
KCA1 191509Z 34020KT M04/M10 A3025 RMK A01 T10401096  RH  065%=      5-min Rain = 0
KCA1 191510Z 34018KT M04/M10 A3025 RMK A01 T10401095  RH  066%=      5-min Rain = 0
KCA1 191511Z 33022KT M04/M10 A3025 RMK A01 T10401095  RH  066%=      5-min Rain = 0
KCA1 191512Z 34022KT M04/M10 A3025 RMK A01 T10401097  RH  065%=      5-min Rain = 0
KCA1 191513Z 35021KT M04/M10 A3025 RMK A01 T10411099  RH  064%=      5-min Rain = 0
KCA1 191514Z 34020G27KT M04/M10 A3025 RMK A01 T10411099  RH  064%=      5-min Rain = 0
KCA1 191515Z 34022G28KT M04/M10 A3026 RMK A01 T10411100  RH  064%=      5-min Rain = 0
KCA1 191516Z 34024G30KT M04/M10 A3026 RMK A01 T10411101  RH  063%=      5-min Rain = 0
KCA1 191517Z 35023G28KT M04/M10 A3026 RMK A01 T10421103  RH  062%=      5-min Rain = 0
KCA1 191518Z 35024KT M04/M10 A3026 RMK A01 T10421103  RH  062%=      5-min Rain = 0
KCA1 191519Z 35022KT M04/M10 A3026 RMK A01 T10421104  RH  062%=      5-min Rain = 0
KCA1 191520Z 35023G28KT M04/M10 A3026 RMK A01 T10421104  RH  062%=      5-min Rain = 0
KCA1 191521Z 34019G25KT M04/M10 A3026 RMK A01 T10421104  RH  062%=      5-min Rain = 0
KCA1 191522Z 35019KT M04/M10 A3027 RMK A01 T10411103  RH  062%=      5-min Rain = 0
KCA1 191523Z 35022G28KT M04/M10 A3027 RMK A01 T10401102  RH  062%=      5-min Rain = 0
KCA1 191524Z 34022KT M04/M10 A3027 RMK A01 T10401103  RH  061%=      5-min Rain = 0
KCA1 191525Z 35024KT M04/M10 A3027 RMK A01 T10401104  RH  061%=      5-min Rain = 0
KCA1 191526Z 34020KT M04/M10 A3027 RMK A01 T10401103  RH  061%=      5-min Rain = 0
KCA1 191527Z 34018KT M04/M10 A3027 RMK A01 T10391103  RH  061%=      5-min Rain = 0
KCA1 191528Z 34018G24KT M04/M10 A3027 RMK A01 T10391102  RH  061%=      5-min Rain = 0
KCA1 191529Z 34019KT M04/M10 A3027 RMK A01 T10391102  RH  061%=      5-min Rain = 0
KCA1 191530Z 34021G27KT M04/M10 A3027 RMK A01 T10381102  RH  061%=      5-min Rain = 0
KCA1 191531Z 34025G30KT M04/M10 A3027 RMK A01 T10381103  RH  061%=      5-min Rain = 0
KCA1 191532Z 35023G28KT M04/M11 A3027 RMK A01 T10401105  RH  061%=      5-min Rain = 0
KCA1 191533Z 34023G28KT M04/M11 A3027 RMK A01 T10411105  RH  061%=      5-min Rain = 0
KCA1 191534Z 35021KT M04/M10 A3027 RMK A01 T10411104  RH  062%=      5-min Rain = 0
KCA1 191535Z 34023KT M04/M10 A3027 RMK A01 T10411104  RH  062%=      5-min Rain = 0
KCA1 191536Z 35026KT M04/M10 A3027 RMK A01 T10411104  RH  061%=      5-min Rain = 0
KCA1 191537Z 34024G29KT M04/M11 A3027 RMK A01 T10411105  RH  061%=      5-min Rain = 0
KCA1 191538Z 34023G29KT M04/M11 A3027 RMK A01 T10421105  RH  061%=      5-min Rain = 0
KCA1 191539Z 35020KT M04/M11 A3027 RMK A01 T10421105  RH  061%=      5-min Rain = 0
KCA1 191540Z 34022G29KT M04/M10 A3027 RMK A01 T10401104  RH  061%=      5-min Rain = 0
KCA1 191541Z 35021G27KT M04/M11 A3027 RMK A01 T10401105  RH  061%=      5-min Rain = 0
KCA1 191542Z 35021G27KT M04/M11 A3027 RMK A01 T10411105  RH  061%=      5-min Rain = 0
KCA1 191543Z 34020G25KT M04/M11 A3027 RMK A01 T10411105  RH  061%=      5-min Rain = 0
KCA1 191544Z 34021G26KT M04/M11 A3027 RMK A01 T10401105  RH  061%=      5-min Rain = 0
KCA1 191545Z 34021G26KT M04/M11 A3027 RMK A01 T10401106  RH  061%=      5-min Rain = 0
KCA1 191546Z 34019KT M04/M11 A3027 RMK A01 T10401106  RH  060%=      5-min Rain = 0
KCA1 191547Z 35017G23KT M04/M11 A3027 RMK A01 T10401105  RH  061%=      5-min Rain = 0
KCA1 191548Z 35017KT M04/M10 A3027 RMK A01 T10381103  RH  061%=      5-min Rain = 0
KCA1 191549Z 35019KT M04/M10 A3027 RMK A01 T10371102  RH  061%=      5-min Rain = 0
KCA1 191550Z 35019KT M04/M10 A3027 RMK A01 T10371103  RH  061%=      5-min Rain = 0
KCA1 191551Z 35019G24KT M04/M10 A3027 RMK A01 T10381103  RH  061%=      5-min Rain = 0
KCA1 191552Z 35018G23KT M04/M10 A3027 RMK A01 T10391103  RH  061%=      5-min Rain = 0
KCA1 191553Z 35019KT M04/M10 A3027 RMK A01 T10391103  RH  061%=      5-min Rain = 0
KCA1 191554Z 34021G26KT M04/M10 A3027 RMK A01 T10391103  RH  061%=      5-min Rain = 0
KCA1 191555Z 34018G23KT M04/M10 A3028 RMK A01 T10381104  RH  060%=      5-min Rain = 0
KCA1 191556Z 34023KT M04/M10 A3028 RMK A01 T10381104  RH  060%=      5-min Rain = 0
KCA1 191557Z 33021G27KT M04/M11 A3028 RMK A01 T10391105  RH  060%=      5-min Rain = 0
KCA1 191558Z 34023G29KT M04/M11 A3028 RMK A01 T10391108  RH  059%=      5-min Rain = 0
KCA1 191559Z 34022G27KT M04/M11 A3028 RMK A01 T10401109  RH  059%=      5-min Rain = 0
KCA1 191600Z 35022KT M04/M11 A3029 RMK A01 T10411109  RH  059%=      5-min Rain = 0
KCA1 191601Z 35022KT M04/M11 A3029 RMK A01 T10411108  RH  059%=      5-min Rain = 0
KCA1 191602Z 34021G26KT M04/M11 A3029 RMK A01 T10411108  RH  059%=      5-min Rain = 0
KCA1 191603Z 34019G26KT M04/M11 A3029 RMK A01 T10411109  RH  059%=      5-min Rain = 0
KCA1 191604Z 34019KT M04/M11 A3029 RMK A01 T10401109  RH  059%=      5-min Rain = 0
KCA1 191605Z 33024G29KT M04/M11 A3029 RMK A01 T10381109  RH  058%=      5-min Rain = 0
KCA1 191606Z 34026G31KT M04/M11 A3029 RMK A01 T10391111  RH  057%=      5-min Rain = 0
KCA1 191607Z 35021G27KT M04/M11 A3029 RMK A01 T10401113  RH  057%=      5-min Rain = 0
KCA1 191608Z 35026KT M04/M11 A3029 RMK A01 T10391112  RH  057%=      5-min Rain = 0
KCA1 191609Z 35022KT M04/M11 A3029 RMK A01 T10391112  RH  057%=      5-min Rain = 0
KCA1 191610Z 36023G28KT M04/M11 A3029 RMK A01 T10401113  RH  057%=      5-min Rain = 0
KCA1 191611Z 36026KT M04/M11 A3029 RMK A01 T10411112  RH  058%=      5-min Rain = 0
KCA1 191612Z 00024KT M04/M11 A3029 RMK A01 T10421112  RH  058%=      5-min Rain = 0
KCA1 191613Z 36021KT M04/M11 A3029 RMK A01 T10421112  RH  059%=      5-min Rain = 0
KCA1 191614Z 36020G25KT M04/M11 A3029 RMK A01 T10421110  RH  059%=      5-min Rain = 0
KCA1 191615Z 36020KT M04/M11 A3029 RMK A01 T10411109  RH  059%=      5-min Rain = 0
KCA1 191616Z 36019KT M04/M11 A3029 RMK A01 T10411108  RH  059%=      5-min Rain = 0
KCA1 191617Z 35018KT M04/M11 A3029 RMK A01 T10401107  RH  060%=      5-min Rain = 0
KCA1 191618Z 34019G25KT M04/M11 A3029 RMK A01 T10391106  RH  060%=      5-min Rain = 0
KCA1 191619Z 34021KT M04/M11 A3029 RMK A01 T10381106  RH  059%=      5-min Rain = 0
KCA1 191620Z 34017KT M04/M11 A3029 RMK A01 T10381108  RH  058%=      5-min Rain = 0
KCA1 191621Z 34021KT M04/M11 A3029 RMK A01 T10361107  RH  058%=      5-min Rain = 0
KCA1 191622Z 34020G25KT M04/M11 A303 RMK A01 T10361108  RH  058%=      5-min Rain = 0
KCA1 191623Z 35018G23KT M04/M11 A303 RMK A01 T10371109  RH  057%=      5-min Rain = 0
KCA1 191624Z 34019G28KT M04/M11 A3029 RMK A01 T10361108  RH  057%=      5-min Rain = 0
KCA1 191625Z 34025KT M04/M11 A3029 RMK A01 T10351109  RH  057%=      5-min Rain = 0
KCA1 191626Z 34018KT M04/M11 A303 RMK A01 T10381112  RH  056%=      5-min Rain = 0
KCA1 191627Z 33023G30KT M04/M11 A303 RMK A01 T10381110  RH  057%=      5-min Rain = 0
KCA1 191628Z 34026G31KT M04/M11 A303 RMK A01 T10371111  RH  057%=      5-min Rain = 0
KCA1 191629Z 34024G31KT M04/M11 A303 RMK A01 T10381112  RH  056%=      5-min Rain = 0
KCA1 191630Z 34026G31KT M04/M11 A303 RMK A01 T10391114  RH  056%=      5-min Rain = 0
KCA1 191631Z 34026KT M04/M12 A303 RMK A01 T10401115  RH  056%=      5-min Rain = 0
KCA1 191632Z 35024KT M04/M11 A3031 RMK A01 T10411114  RH  057%=      5-min Rain = 0
KCA1 191633Z 34019G25KT M04/M11 A3031 RMK A01 T10401113  RH  057%=      5-min Rain = 0
KCA1 191634Z 34016G21KT M04/M11 A3031 RMK A01 T10381109  RH  058%=      5-min Rain = 0
KCA1 191635Z 35021KT M04/M11 A3031 RMK A01 T10351107  RH  058%=      5-min Rain = 0
KCA1 191636Z 34021G27KT M04/M11 A303 RMK A01 T10381110  RH  057%=      5-min Rain = 0
KCA1 191637Z 35018G23KT M04/M11 A3031 RMK A01 T10391110  RH  058%=      5-min Rain = 0
KCA1 191638Z 35022KT M04/M11 A303 RMK A01 T10361107  RH  058%=      5-min Rain = 0
KCA1 191639Z 34022KT M04/M11 A303 RMK A01 T10361108  RH  058%=      5-min Rain = 0
KCA1 191640Z 34023G28KT M04/M11 A303 RMK A01 T10371109  RH  058%=      5-min Rain = 0
KCA1 191641Z 34021KT M04/M11 A303 RMK A01 T10381109  RH  058%=      5-min Rain = 0
KCA1 191642Z 34020G26KT M04/M11 A303 RMK A01 T10371108  RH  058%=      5-min Rain = 0
KCA1 191643Z 34022G27KT M04/M11 A303 RMK A01 T10371107  RH  058%=      5-min Rain = 0
KCA1 191644Z 34023G29KT M04/M11 A303 RMK A01 T10371108  RH  058%=      5-min Rain = 0
KCA1 191645Z 34022G27KT M04/M11 A303 RMK A01 T10371108  RH  058%=      5-min Rain = 0
KCA1 191646Z 34022KT M04/M11 A3031 RMK A01 T10361107  RH  058%=      5-min Rain = 0
KCA1 191647Z 34021KT M04/M11 A3031 RMK A01 T10361106  RH  058%=      5-min Rain = 0
KCA1 191648Z 35020KT M04/M11 A3031 RMK A01 T10351106  RH  058%=      5-min Rain = 0
KCA1 191649Z 34019KT M04/M11 A3031 RMK A01 T10351106  RH  058%=      5-min Rain = 0
KCA1 191650Z 34017G23KT M03/M11 A3031 RMK A01 T10341105  RH  058%=      5-min Rain = 0
KCA1 191651Z 34021G29KT M03/M10 A3031 RMK A01 T10321104  RH  058%=      5-min Rain = 0
KCA1 191652Z 34021KT M03/M11 A3031 RMK A01 T10331105  RH  057%=      5-min Rain = 0
KCA1 191653Z 33021KT M03/M11 A3031 RMK A01 T10331105  RH  057%=      5-min Rain = 0
KCA1 191654Z 34021KT M03/M11 A3031 RMK A01 T10331105  RH  057%=      5-min Rain = 0
KCA1 191655Z 34019KT M03/M11 A3031 RMK A01 T10341107  RH  057%=      5-min Rain = 0
KCA1 191656Z 33020G25KT M03/M11 A3031 RMK A01 T10341105  RH  058%=      5-min Rain = 0
KCA1 191657Z 34017KT M03/M10 A3031 RMK A01 T10321103  RH  058%=      5-min Rain = 0
KCA1 191658Z 34018KT M03/M10 A3031 RMK A01 T10301101  RH  058%=      5-min Rain = 0
KCA1 191659Z 34020KT M03/M10 A3031 RMK A01 T10281101  RH  057%=      5-min Rain = 0
KCA1 191700Z 34022KT M03/M10 A3031 RMK A01 T10291103  RH  056%=      5-min Rain = 0
KCA1 191701Z 34021G27KT M03/M10 A3031 RMK A01 T10291104  RH  056%=      5-min Rain = 0
KCA1 191702Z 34022KT M03/M11 A3031 RMK A01 T10301105  RH  056%=      5-min Rain = 0
KCA1 191703Z 34019KT M03/M11 A3031 RMK A01 T10301107  RH  056%=      5-min Rain = 0
KCA1 191704Z 35024KT M03/M11 A3031 RMK A01 T10291105  RH  056%=      5-min Rain = 0
KCA1 191705Z 35023KT M03/M11 A3032 RMK A01 T10311108  RH  055%=      5-min Rain = 0
KCA1 191706Z 34019G24KT M03/M11 A3032 RMK A01 T10311107  RH  056%=      5-min Rain = 0
KCA1 191707Z 34018KT M03/M11 A3031 RMK A01 T10291105  RH  056%=      5-min Rain = 0
KCA1 191708Z 34016G21KT M03/M10 A3031 RMK A01 T10281104  RH  056%=      5-min Rain = 0
KCA1 191709Z 34020KT M03/M10 A3031 RMK A01 T10251102  RH  055%=      5-min Rain = 0
KCA1 191710Z 35020KT M03/M10 A3031 RMK A01 T10251104  RH  055%=      5-min Rain = 0
KCA1 191711Z 35020KT M03/M11 A3031 RMK A01 T10271106  RH  054%=      5-min Rain = 0
KCA1 191712Z 34019KT M03/M11 A3031 RMK A01 T10281106  RH  055%=      5-min Rain = 0
KCA1 191713Z 34019KT M03/M11 A3031 RMK A01 T10271105  RH  055%=      5-min Rain = 0
KCA1 191714Z 35020KT M03/M11 A3032 RMK A01 T10271105  RH  055%=      5-min Rain = 0
KCA1 191715Z 35019KT M03/M11 A3031 RMK A01 T10271105  RH  055%=      5-min Rain = 0
KCA1 191716Z 36021KT M03/M11 A3032 RMK A01 T10281105  RH  055%=      5-min Rain = 0
KCA1 191717Z 34019KT M03/M11 A3032 RMK A01 T10291105  RH  056%=      5-min Rain = 0
KCA1 191718Z 34016G21KT M03/M10 A3032 RMK A01 T10281104  RH  056%=      5-min Rain = 0
KCA1 191719Z 34016G22KT M03/M10 A3032 RMK A01 T10261102  RH  056%=      5-min Rain = 0
KCA1 191720Z 33022G27KT M02/M10 A3032 RMK A01 T10231101  RH  055%=      5-min Rain = 0
KCA1 191721Z 33023KT M03/M11 A3032 RMK A01 T10251106  RH  054%=      5-min Rain = 0
KCA1 191722Z 34019KT M03/M11 A3032 RMK A01 T10281107  RH  054%=      5-min Rain = 0
KCA1 191723Z 34019G25KT M03/M11 A3032 RMK A01 T10271105  RH  055%=      5-min Rain = 0
KCA1 191724Z 33018KT M03/M10 A3032 RMK A01 T10251104  RH  055%=      5-min Rain = 0
KCA1 191725Z 34018KT M03/M11 A3032 RMK A01 T10251105  RH  054%=      5-min Rain = 0
KCA1 191726Z 33020KT M03/M10 A3032 RMK A01 T10251104  RH  054%=      5-min Rain = 0
KCA1 191727Z 34019G25KT M03/M11 A3032 RMK A01 T10251105  RH  054%=      5-min Rain = 0
KCA1 191728Z 34019G25KT M03/M11 A3032 RMK A01 T10251105  RH  055%=      5-min Rain = 0
KCA1 191729Z 35020KT M03/M10 A3032 RMK A01 T10251104  RH  054%=      5-min Rain = 0
KCA1 191730Z 34017KT M03/M11 A3032 RMK A01 T10261105  RH  054%=      5-min Rain = 0
KCA1 191731Z 35017G22KT M03/M10 A3031 RMK A01 T10251104  RH  055%=      5-min Rain = 0
KCA1 191732Z 35021KT M02/M10 A3031 RMK A01 T10231103  RH  055%=      5-min Rain = 0
KCA1 191733Z 35019G24KT M02/M11 A3031 RMK A01 T10241105  RH  054%=      5-min Rain = 0
KCA1 191734Z 34021KT M02/M11 A3031 RMK A01 T10241105  RH  054%=      5-min Rain = 0
KCA1 191735Z 35021KT M02/M11 A3032 RMK A01 T10231105  RH  054%=      5-min Rain = 0
KCA1 191736Z 34020KT M02/M11 A3031 RMK A01 T10241106  RH  054%=      5-min Rain = 0
KCA1 191737Z 35022KT M03/M11 A3031 RMK A01 T10251106  RH  054%=      5-min Rain = 0
KCA1 191738Z 35023KT M03/M11 A3031 RMK A01 T10251106  RH  054%=      5-min Rain = 0
KCA1 191739Z 34023KT M03/M11 A3031 RMK A01 T10251106  RH  054%=      5-min Rain = 0
KCA1 191740Z 35022G27KT M03/M11 A3031 RMK A01 T10261107  RH  054%=      5-min Rain = 0
KCA1 191741Z 34021G27KT M03/M11 A3031 RMK A01 T10261106  RH  054%=      5-min Rain = 0
KCA1 191742Z 34023KT M02/M11 A3031 RMK A01 T10241106  RH  053%=      5-min Rain = 0
KCA1 191743Z 35023KT M02/M11 A3031 RMK A01 T10231106  RH  053%=      5-min Rain = 0
KCA1 191744Z 34021KT M03/M11 A3031 RMK A01 T10251107  RH  053%=      5-min Rain = 0
KCA1 191745Z 34021KT M03/M11 A3031 RMK A01 T10251106  RH  054%=      5-min Rain = 0
KCA1 191746Z 35022G27KT M02/M11 A3031 RMK A01 T10231105  RH  054%=      5-min Rain = 0
KCA1 191747Z 35022KT M02/M11 A3031 RMK A01 T10241106  RH  053%=      5-min Rain = 0
KCA1 191748Z 35021KT M03/M11 A3031 RMK A01 T10261108  RH  054%=      5-min Rain = 0
KCA1 191749Z 35019KT M03/M11 A3031 RMK A01 T10251105  RH  054%=      5-min Rain = 0
KCA1 191750Z 33016KT M02/M10 A303 RMK A01 T10241104  RH  054%=      5-min Rain = 0
KCA1 191751Z 33017G25KT M02/M10 A303 RMK A01 T10211102  RH  054%=      5-min Rain = 0
KCA1 191752Z 34021KT M02/M10 A303 RMK A01 T10191103  RH  053%=      5-min Rain = 0
KCA1 191753Z 33021G26KT M02/M11 A303 RMK A01 T10201105  RH  052%=      5-min Rain = 0
KCA1 191754Z 33024G29KT M02/M11 A303 RMK A01 T10201106  RH  052%=      5-min Rain = 0
KCA1 191755Z 33024KT M02/M11 A3031 RMK A01 T10221109  RH  051%=      5-min Rain = 0
KCA1 191756Z 33023KT M02/M11 A3031 RMK A01 T10231110  RH  051%=      5-min Rain = 0
KCA1 191757Z 34021G26KT M02/M11 A3031 RMK A01 T10231109  RH  052%=      5-min Rain = 0
KCA1 191758Z 34020G26KT M02/M11 A3031 RMK A01 T10221108  RH  052%=      5-min Rain = 0
KCA1 191759Z 34023G30KT M02/M11 A3031 RMK A01 T10211107  RH  052%=      5-min Rain = 0
KCA1 191800Z 34022KT M02/M11 A3031 RMK A01 T10211108  RH  051%=      5-min Rain = 0
KCA1 191801Z 34021KT M02/M11 A3031 RMK A01 T10211108  RH  051%=      5-min Rain = 0
KCA1 191802Z 34019G24KT M02/M11 A3031 RMK A01 T10221109  RH  051%=      5-min Rain = 0
KCA1 191803Z 34019G24KT M02/M11 A3031 RMK A01 T10221106  RH  053%=      5-min Rain = 0
KCA1 191804Z 34021KT M02/M11 A3031 RMK A01 T10211105  RH  053%=      5-min Rain = 0
KCA1 191805Z 34021KT M02/M11 A3031 RMK A01 T10211105  RH  053%=      5-min Rain = 0
KCA1 191806Z 33017G24KT M02/M11 A3031 RMK A01 T10221105  RH  053%=      5-min Rain = 0
KCA1 191807Z 33021KT M02/M10 A3031 RMK A01 T10201103  RH  053%=      5-min Rain = 0
KCA1 191808Z 34019G27KT M02/M10 A3031 RMK A01 T10191103  RH  053%=      5-min Rain = 0
KCA1 191809Z 33023KT M02/M10 A3031 RMK A01 T10191104  RH  052%=      5-min Rain = 0
KCA1 191810Z 33023KT M02/M11 A3031 RMK A01 T10201106  RH  052%=      5-min Rain = 0
KCA1 191811Z 34021KT M02/M11 A3031 RMK A01 T10211107  RH  052%=      5-min Rain = 0
KCA1 191812Z 33020KT M02/M11 A3031 RMK A01 T10201106  RH  052%=      5-min Rain = 0
KCA1 191813Z 34020G26KT M02/M11 A3031 RMK A01 T10191105  RH  052%=      5-min Rain = 0
KCA1 191814Z 33021G29KT M02/M10 A3031 RMK A01 T10181104  RH  052%=      5-min Rain = 0
KCA1 191815Z 33023KT M02/M10 A3031 RMK A01 T10171103  RH  052%=      5-min Rain = 0
KCA1 191816Z 34022KT M02/M11 A3031 RMK A01 T10171105  RH  051%=      5-min Rain = 0
KCA1 191817Z 33016G21KT M02/M10 A303 RMK A01 T10171104  RH  052%=      5-min Rain = 0
KCA1 191818Z 34019G24KT M01/M10 A303 RMK A01 T10131100  RH  052%=      5-min Rain = 0
KCA1 191819Z 34022KT M01/M10 A303 RMK A01 T10121102  RH  051%=      5-min Rain = 0
KCA1 191820Z 33019KT M02/M11 A303 RMK A01 T10151105  RH  050%=      5-min Rain = 0
KCA1 191821Z 34019G25KT M02/M10 A3031 RMK A01 T10161104  RH  051%=      5-min Rain = 0
KCA1 191822Z 34021G26KT M02/M10 A3031 RMK A01 T10161103  RH  051%=      5-min Rain = 0
KCA1 191823Z 34021G27KT M02/M10 A303 RMK A01 T10161103  RH  051%=      5-min Rain = 0
KCA1 191824Z 34018G24KT M01/M10 A3031 RMK A01 T10141101  RH  051%=      5-min Rain = 0
KCA1 191825Z 34018G24KT M01/M10 A3031 RMK A01 T10111100  RH  051%=      5-min Rain = 0
KCA1 191826Z 34023KT M01/M10 A303 RMK A01 T10111102  RH  050%=      5-min Rain = 0
KCA1 191827Z 33021G27KT M01/M11 A303 RMK A01 T10121105  RH  050%=      5-min Rain = 0
KCA1 191828Z 33017KT M01/M10 A3031 RMK A01 T10131104  RH  050%=      5-min Rain = 0
KCA1 191829Z 33017G23KT M01/M10 A303 RMK A01 T10111102  RH  050%=      5-min Rain = 0
KCA1 191830Z 34022KT M01/M11 A303 RMK A01 T10111105  RH  049%=      5-min Rain = 0
KCA1 191831Z 34018KT M01/M11 A303 RMK A01 T10111107  RH  048%=      5-min Rain = 0
KCA1 191832Z 33019KT M01/M11 A303 RMK A01 T10101107  RH  048%=      5-min Rain = 0
KCA1 191833Z 35023G28KT M01/M11 A303 RMK A01 T10101106  RH  048%=      5-min Rain = 0
KCA1 191834Z 34018G23KT M01/M11 A303 RMK A01 T10121108  RH  048%=      5-min Rain = 0
KCA1 191835Z 35022KT M01/M11 A303 RMK A01 T10131108  RH  048%=      5-min Rain = 0
KCA1 191836Z 35019G25KT M01/M11 A3029 RMK A01 T10131109  RH  048%=      5-min Rain = 0
KCA1 191837Z 35024G29KT M01/M11 A3029 RMK A01 T10121107  RH  049%=      5-min Rain = 0
KCA1 191838Z 35021G26KT M01/M11 A303 RMK A01 T10131107  RH  049%=      5-min Rain = 0
KCA1 191839Z 34018KT M01/M11 A303 RMK A01 T10141106  RH  050%=      5-min Rain = 0
KCA1 191840Z 35018G23KT M01/M10 A303 RMK A01 T10121103  RH  050%=      5-min Rain = 0
KCA1 191841Z 34019KT M01/M10 A303 RMK A01 T10101102  RH  050%=      5-min Rain = 0
KCA1 191842Z 34017KT M01/M10 A303 RMK A01 T10101102  RH  050%=      5-min Rain = 0
KCA1 191843Z 33018KT M01/M10 A303 RMK A01 T10081100  RH  050%=      5-min Rain = 0
KCA1 191844Z 33020KT M01/M10 A303 RMK A01 T10071099  RH  050%=      5-min Rain = 0
KCA1 191845Z 33020G25KT M01/M10 A3029 RMK A01 T10081102  RH  049%=      5-min Rain = 0
KCA1 191846Z 32020KT M01/M10 A3029 RMK A01 T10101103  RH  049%=      5-min Rain = 0
KCA1 191847Z 33021G26KT M01/M10 A3029 RMK A01 T10091101  RH  050%=      5-min Rain = 0
KCA1 191848Z 33024KT M01/M10 A3029 RMK A01 T10091102  RH  049%=      5-min Rain = 0
KCA1 191849Z 34025G30KT M01/M11 A3029 RMK A01 T10111106  RH  049%=      5-min Rain = 0
KCA1 191850Z 34021G26KT M01/M11 A3029 RMK A01 T10131107  RH  049%=      5-min Rain = 0
KCA1 191851Z 34019KT M01/M11 A3029 RMK A01 T10121105  RH  049%=      5-min Rain = 0
KCA1 191852Z 34020KT M01/M10 A3029 RMK A01 T10091102  RH  050%=      5-min Rain = 0
KCA1 191853Z 35021G26KT M01/M10 A3029 RMK A01 T10081101  RH  049%=      5-min Rain = 0
KCA1 191854Z 34016KT M01/M10 A3029 RMK A01 T10081102  RH  049%=      5-min Rain = 0
KCA1 191855Z 34019G24KT M01/M10 A3029 RMK A01 T10061100  RH  049%=      5-min Rain = 0
KCA1 191856Z 34020KT M01/M10 A3029 RMK A01 T10051101  RH  049%=      5-min Rain = 0
KCA1 191857Z 32018KT M01/M10 A3029 RMK A01 T10071103  RH  048%=      5-min Rain = 0
KCA1 191858Z 33015KT M01/M10 A3029 RMK A01 T10071101  RH  049%=      5-min Rain = 0
KCA1 191859Z 34019G24KT M01/M10 A3029 RMK A01 T10051099  RH  049%=      5-min Rain = 0
KCA1 191900Z 34018KT M01/M10 A3029 RMK A01 T10061101  RH  049%=      5-min Rain = 0
KCA1 191901Z 34016G22KT M01/M10 A3028 RMK A01 T10071102  RH  049%=      5-min Rain = 0
KCA1 191902Z 34020G25KT M01/M10 A3028 RMK A01 T10071101  RH  049%=      5-min Rain = 0
KCA1 191903Z 34019KT M01/M10 A3028 RMK A01 T10061100  RH  049%=      5-min Rain = 0
KCA1 191904Z 33019G24KT M01/M10 A3028 RMK A01 T10071101  RH  049%=      5-min Rain = 0
KCA1 191905Z 33021KT M01/M10 A3028 RMK A01 T10071100  RH  049%=      5-min Rain = 0
KCA1 191906Z 34020KT M01/M10 A3028 RMK A01 T10081101  RH  049%=      5-min Rain = 0
KCA1 191907Z 34019KT M01/M10 A3028 RMK A01 T10081100  RH  050%=      5-min Rain = 0
KCA1 191908Z 32017KT M01/M10 A3028 RMK A01 T10071098  RH  050%=      5-min Rain = 0
KCA1 191909Z 34015KT M01/M10 A3028 RMK A01 T10061098  RH  050%=      5-min Rain = 0
KCA1 191910Z 33016KT M00/M10 A3027 RMK A01 T10031096  RH  050%=      5-min Rain = 0
KCA1 191911Z 34017KT M00/M10 A3027 RMK A01 T10011095  RH  049%=      5-min Rain = 0
KCA1 191912Z 34017KT 00/M10 A3027 RMK A01 T00021095  RH  048%=      5-min Rain = 0
KCA1 191913Z 34017KT 00/10 A3027 RMK A01 T00-00-97  RH  048%=      5-min Rain = 0
KCA1 191914Z 32018G24KT M00/M10 A3027 RMK A01 T10011097  RH  048%=      5-min Rain = 0
KCA1 191915Z 33022KT M00/M10 A3027 RMK A01 T10031101  RH  048%=      5-min Rain = 0
KCA1 191916Z 33020KT M01/M10 A3027 RMK A01 T10051101  RH  048%=      5-min Rain = 0
KCA1 191917Z 33020KT M01/M10 A3028 RMK A01 T10061100  RH  049%=      5-min Rain = 0
KCA1 191918Z 34021KT M01/M10 A3028 RMK A01 T10051098  RH  049%=      5-min Rain = 0
KCA1 191919Z 33022KT M00/M10 A3027 RMK A01 T10041098  RH  049%=      5-min Rain = 0
KCA1 191920Z 32020KT M01/M10 A3027 RMK A01 T10061100  RH  049%=      5-min Rain = 0
KCA1 191921Z 33021KT M00/M10 A3027 RMK A01 T10041099  RH  049%=      5-min Rain = 0
KCA1 191922Z 34020KT M00/M10 A3027 RMK A01 T10031098  RH  049%=      5-min Rain = 0
KCA1 191923Z 35021KT M00/M10 A3027 RMK A01 T10021099  RH  048%=      5-min Rain = 0
KCA1 191924Z 34020G25KT M00/M10 A3027 RMK A01 T10041101  RH  048%=      5-min Rain = 0
KCA1 191925Z 34016G21KT M01/M10 A3027 RMK A01 T10051099  RH  049%=      5-min Rain = 0
KCA1 191926Z 34019KT M00/M10 A3027 RMK A01 T10011096  RH  049%=      5-min Rain = 0
KCA1 191927Z 33021KT M00/M10 A3026 RMK A01 T10011098  RH  048%=      5-min Rain = 0
KCA1 191928Z 33018KT M00/M10 A3027 RMK A01 T10021100  RH  048%=      5-min Rain = 0
KCA1 191929Z 33020KT M00/M10 A3026 RMK A01 T10021099  RH  048%=      5-min Rain = 0
KCA1 191930Z 32020KT M00/M10 A3026 RMK A01 T10021099  RH  048%=      5-min Rain = 0
KCA1 191931Z 33018KT M00/M10 A3026 RMK A01 T10031099  RH  048%=      5-min Rain = 0
KCA1 191932Z 33017KT M00/M10 A3026 RMK A01 T10031100  RH  048%=      5-min Rain = 0
KCA1 191933Z 33017KT M00/M10 A3026 RMK A01 T10021098  RH  048%=      5-min Rain = 0
KCA1 191934Z 34014KT 00/10 A3026 RMK A01 T00000-96  RH  048%=      5-min Rain = 0
KCA1 191935Z 34020KT 01/M09 A3026 RMK A01 T00051092  RH  048%=      5-min Rain = 0
KCA1 191936Z 34020KT 00/M10 A3026 RMK A01 T00041096  RH  047%=      5-min Rain = 0
KCA1 191937Z 33020KT 00/M10 A3026 RMK A01 T00021097  RH  047%=      5-min Rain = 0
KCA1 191938Z 34020KT 00/10 A3026 RMK A01 T00-00-98  RH  048%=      5-min Rain = 0
KCA1 191939Z 34018G23KT M00/M10 A3026 RMK A01 T10011096  RH  049%=      5-min Rain = 0
KCA1 191940Z 33021KT M00/M10 A3026 RMK A01 T10011096  RH  049%=      5-min Rain = 0
KCA1 191941Z 34020KT M00/M10 A3025 RMK A01 T10021097  RH  049%=      5-min Rain = 0
KCA1 191942Z 34016G21KT M00/M10 A3026 RMK A01 T10011096  RH  049%=      5-min Rain = 0
KCA1 191943Z 34018KT 00/10 A3026 RMK A01 T00-00-95  RH  049%=      5-min Rain = 0
KCA1 191944Z 33020G25KT 00/10 A3025 RMK A01 T00000-95  RH  049%=      5-min Rain = 0
KCA1 191945Z 34019G24KT 00/M09 A3025 RMK A01 T00011094  RH  049%=      5-min Rain = 0
KCA1 191946Z 34018KT 00/M09 A3026 RMK A01 T00031092  RH  049%=      5-min Rain = 0
KCA1 191947Z 34018KT 00/M09 A3025 RMK A01 T00021094  RH  048%=      5-min Rain = 0
KCA1 191948Z 32017KT 00/M09 A3025 RMK A01 T00011094  RH  049%=      5-min Rain = 0
KCA1 191949Z 32015KT M00/M10 A3025 RMK A01 T10021096  RH  049%=      5-min Rain = 0
KCA1 191950Z 33018KT M00/M09 A3025 RMK A01 T10021094  RH  050%=      5-min Rain = 0
KCA1 191951Z 35019KT 00/09 A3025 RMK A01 T00-00-93  RH  050%=      5-min Rain = 0
KCA1 191952Z 35018KT 00/09 A3025 RMK A01 T00-00-94  RH  049%=      5-min Rain = 0
KCA1 191953Z 34014G21KT 00/09 A3025 RMK A01 T00-00-93  RH  050%=      5-min Rain = 0
KCA1 191954Z 35018G23KT 00/M09 A3025 RMK A01 T00031090  RH  050%=      5-min Rain = 0
KCA1 191955Z 35019KT 00/M09 A3025 RMK A01 T00031092  RH  049%=      5-min Rain = 0
KCA1 191956Z 36018KT 00/M09 A3025 RMK A01 T00021094  RH  049%=      5-min Rain = 0
KCA1 191957Z 34014KT 00/M09 A3025 RMK A01 T00011093  RH  049%=      5-min Rain = 0
KCA1 191958Z 34013KT 00/M09 A3025 RMK A01 T00031090  RH  050%=      5-min Rain = 0
KCA1 191959Z 33012KT 01/M09 A3025 RMK A01 T00061087  RH  050%=      5-min Rain = 0
KCA1 192000Z 33014KT 01/M09 A3025 RMK A01 T00081088  RH  049%=      5-min Rain = 0
KCA1 192001Z 33014KT 01/M09 A3025 RMK A01 T00111087  RH  048%=      5-min Rain = 0
KCA1 192002Z 33016KT 01/M09 A3024 RMK A01 T00111090  RH  047%=      5-min Rain = 0
KCA1 192003Z 34016KT 01/M09 A3025 RMK A01 T00091090  RH  047%=      5-min Rain = 0
KCA1 192004Z 34016KT 01/M09 A3025 RMK A01 T00091090  RH  047%=      5-min Rain = 0
KCA1 192005Z 34016KT 01/M09 A3025 RMK A01 T00061092  RH  048%=      5-min Rain = 0
KCA1 192006Z 33013G19KT 01/M09 A3025 RMK A01 T00061091  RH  048%=      5-min Rain = 0
KCA1 192007Z 33016KT 01/M09 A3025 RMK A01 T00091088  RH  048%=      5-min Rain = 0
KCA1 192008Z 33015KT 01/M09 A3024 RMK A01 T00091090  RH  048%=      5-min Rain = 0
KCA1 192009Z 32020KT 01/M09 A3024 RMK A01 T00081092  RH  047%=      5-min Rain = 0
KCA1 192010Z 32017KT 01/M09 A3024 RMK A01 T00061094  RH  047%=      5-min Rain = 0
KCA1 192011Z 33018KT 01/M09 A3024 RMK A01 T00061093  RH  047%=      5-min Rain = 0
KCA1 192012Z 34019G24KT 01/M09 A3025 RMK A01 T00071092  RH  048%=      5-min Rain = 0
KCA1 192013Z 34019KT 01/M09 A3025 RMK A01 T00061093  RH  047%=      5-min Rain = 0
KCA1 192014Z 35019G24KT 01/M09 A3025 RMK A01 T00051093  RH  047%=      5-min Rain = 0
KCA1 192015Z 34018KT 01/M09 A3025 RMK A01 T00051093  RH  048%=      5-min Rain = 0
KCA1 192016Z 34017KT 01/M09 A3025 RMK A01 T00051092  RH  048%=      5-min Rain = 0
KCA1 192017Z 34020G25KT 01/M09 A3024 RMK A01 T00051093  RH  048%=      5-min Rain = 0
KCA1 192018Z 34015KT 01/M09 A3024 RMK A01 T00051092  RH  048%=      5-min Rain = 0
KCA1 192019Z 34018KT 01/M09 A3024 RMK A01 T00061090  RH  048%=      5-min Rain = 0
KCA1 192020Z 33015KT 01/M09 A3024 RMK A01 T00061092  RH  048%=      5-min Rain = 0
KCA1 192021Z 33013KT 01/M09 A3024 RMK A01 T00061092  RH  048%=      5-min Rain = 0
KCA1 192022Z 33015KT 01/M09 A3024 RMK A01 T00061091  RH  048%=      5-min Rain = 0
KCA1 192023Z 33014KT 01/M09 A3024 RMK A01 T00061091  RH  048%=      5-min Rain = 0
KCA1 192024Z 32016KT 01/M09 A3024 RMK A01 T00091088  RH  048%=      5-min Rain = 0
KCA1 192025Z 33012KT 01/M09 A3024 RMK A01 T00101088  RH  048%=      5-min Rain = 0
KCA1 192026Z 33016KT 01/M09 A3024 RMK A01 T00131086  RH  048%=      5-min Rain = 0
KCA1 192027Z 34015KT 01/M09 A3024 RMK A01 T00121090  RH  047%=      5-min Rain = 0
KCA1 192028Z 34016KT 01/M09 A3025 RMK A01 T00101091  RH  047%=      5-min Rain = 0
KCA1 192029Z 34017KT 01/M09 A3025 RMK A01 T00091090  RH  047%=      5-min Rain = 0
KCA1 192030Z 34016KT 01/M09 A3025 RMK A01 T00091089  RH  048%=      5-min Rain = 0
KCA1 192031Z 33014KT 01/M09 A3025 RMK A01 T00101088  RH  048%=      5-min Rain = 0
KCA1 192032Z 33015KT 01/M09 A3025 RMK A01 T00111087  RH  048%=      5-min Rain = 0
KCA1 192033Z 33015KT 01/M09 A3025 RMK A01 T00111088  RH  048%=      5-min Rain = 0
KCA1 192034Z 33011G16KT 01/M09 A3025 RMK A01 T00111087  RH  048%=      5-min Rain = 0
KCA1 192035Z 32013KT 01/M09 A3024 RMK A01 T00131085  RH  048%=      5-min Rain = 0
KCA1 192036Z 31013G18KT 01/M09 A3025 RMK A01 T00131086  RH  047%=      5-min Rain = 0
KCA1 192037Z 33015G20KT 01/M09 A3024 RMK A01 T00121089  RH  047%=      5-min Rain = 0
KCA1 192038Z 34018KT 01/M09 A3024 RMK A01 T00111088  RH  048%=      5-min Rain = 0
KCA1 192039Z 35014KT 01/M09 A3024 RMK A01 T00101088  RH  048%=      5-min Rain = 0
KCA1 192040Z 34013G19KT 01/M09 A3025 RMK A01 T00101087  RH  048%=      5-min Rain = 0
KCA1 192041Z 34012G17KT 01/M09 A3025 RMK A01 T00121085  RH  048%=      5-min Rain = 0
KCA1 192042Z 32017KT 01/M08 A3024 RMK A01 T00141084  RH  048%=      5-min Rain = 0
KCA1 192043Z 32016KT 01/M09 A3024 RMK A01 T00121088  RH  047%=      5-min Rain = 0
KCA1 192044Z 32018KT 01/M09 A3024 RMK A01 T00101088  RH  048%=      5-min Rain = 0
KCA1 192045Z 33017KT 01/M09 A3024 RMK A01 T00101088  RH  048%=      5-min Rain = 0
KCA1 192046Z 34013KT 01/M09 A3024 RMK A01 T00111087  RH  048%=      5-min Rain = 0
KCA1 192047Z 33016G21KT 02/M08 A3024 RMK A01 T00151084  RH  048%=      5-min Rain = 0
KCA1 192048Z 33015G21KT 02/M09 A3024 RMK A01 T00151087  RH  047%=      5-min Rain = 0
KCA1 192049Z 34017KT 01/M09 A3024 RMK A01 T00141087  RH  047%=      5-min Rain = 0
KCA1 192050Z 34018KT 01/M09 A3024 RMK A01 T00131088  RH  047%=      5-min Rain = 0
KCA1 192051Z 33020KT 01/M09 A3024 RMK A01 T00121088  RH  047%=      5-min Rain = 0
KCA1 192052Z 33019KT 01/M09 A3024 RMK A01 T00111089  RH  047%=      5-min Rain = 0
KCA1 192053Z 33019KT 01/M09 A3024 RMK A01 T00111088  RH  048%=      5-min Rain = 0
KCA1 192054Z 33017G22KT 01/M09 A3024 RMK A01 T00111088  RH  048%=      5-min Rain = 0
KCA1 192055Z 33017KT 01/M09 A3024 RMK A01 T00111087  RH  048%=      5-min Rain = 0
KCA1 192056Z 33014KT 01/M09 A3024 RMK A01 T00121087  RH  048%=      5-min Rain = 0
KCA1 192057Z 33012KT 01/M09 A3024 RMK A01 T00131085  RH  048%=      5-min Rain = 0
KCA1 192058Z 32018KT 02/M08 A3024 RMK A01 T00161084  RH  047%=      5-min Rain = 0
KCA1 192059Z 34015KT 02/M09 A3024 RMK A01 T00151085  RH  047%=      5-min Rain = 0
KCA1 192100Z 33017KT 02/M08 A3024 RMK A01 T00161084  RH  047%=      5-min Rain = 0
KCA1 192101Z 33015KT 02/M08 A3024 RMK A01 T00161084  RH  047%=      5-min Rain = 0
KCA1 192102Z 34016KT 01/M09 A3024 RMK A01 T00141085  RH  047%=      5-min Rain = 0
KCA1 192103Z 34014KT 02/M08 A3024 RMK A01 T00151084  RH  048%=      5-min Rain = 0
KCA1 192104Z 34014KT 02/M08 A3024 RMK A01 T00161082  RH  048%=      5-min Rain = 0
KCA1 192105Z 33015KT 02/M08 A3024 RMK A01 T00161083  RH  048%=      5-min Rain = 0
KCA1 192106Z 34014KT 02/M08 A3024 RMK A01 T00151083  RH  048%=      5-min Rain = 0
KCA1 192107Z 34013KT 02/M08 A3024 RMK A01 T00161082  RH  048%=      5-min Rain = 0
KCA1 192108Z 33014KT 02/M08 A3024 RMK A01 T00181081  RH  048%=      5-min Rain = 0
KCA1 192109Z 33014KT 02/M08 A3024 RMK A01 T00191081  RH  048%=      5-min Rain = 0
KCA1 192110Z 33015KT 02/M08 A3024 RMK A01 T00181083  RH  047%=      5-min Rain = 0
KCA1 192111Z 33017G22KT 02/M08 A3024 RMK A01 T00161084  RH  047%=      5-min Rain = 0
KCA1 192112Z 32019KT 02/M08 A3024 RMK A01 T00161084  RH  048%=      5-min Rain = 0
KCA1 192113Z 33016KT 01/M09 A3024 RMK A01 T00141085  RH  048%=      5-min Rain = 0
KCA1 192114Z 33015KT 01/M08 A3024 RMK A01 T00131083  RH  048%=      5-min Rain = 0
KCA1 192115Z 33016KT 01/M08 A3024 RMK A01 T00141083  RH  048%=      5-min Rain = 0
KCA1 192116Z 33011KT 01/M09 A3024 RMK A01 T00131085  RH  048%=      5-min Rain = 0
KCA1 192117Z 33019G24KT 01/M08 A3024 RMK A01 T00141083  RH  049%=      5-min Rain = 0
KCA1 192118Z 34019G24KT 02/M08 A3024 RMK A01 T00151084  RH  048%=      5-min Rain = 0
KCA1 192119Z 33019KT 02/M08 A3024 RMK A01 T00151084  RH  048%=      5-min Rain = 0
KCA1 192120Z 33018KT 01/M09 A3024 RMK A01 T00141085  RH  048%=      5-min Rain = 0
KCA1 192121Z 33015KT 01/M08 A3024 RMK A01 T00131084  RH  048%=      5-min Rain = 0
KCA1 192122Z 32014KT 01/M08 A3024 RMK A01 T00131084  RH  048%=      5-min Rain = 0
KCA1 192123Z 33014G19KT 01/M08 A3024 RMK A01 T00131084  RH  049%=      5-min Rain = 0
KCA1 192124Z 32017G22KT 02/M08 A3024 RMK A01 T00151081  RH  049%=      5-min Rain = 0
KCA1 192125Z 32013G18KT 02/M08 A3024 RMK A01 T00171082  RH  048%=      5-min Rain = 0
KCA1 192126Z 32016KT 02/M08 A3024 RMK A01 T00171082  RH  048%=      5-min Rain = 0
KCA1 192127Z 33018KT 02/M08 A3024 RMK A01 T00171081  RH  048%=      5-min Rain = 0
KCA1 192128Z 33017KT 02/M08 A3024 RMK A01 T00181081  RH  048%=      5-min Rain = 0
KCA1 192129Z 33015KT 02/M08 A3024 RMK A01 T00171082  RH  048%=      5-min Rain = 0
KCA1 192130Z 32013G18KT 02/M08 A3024 RMK A01 T00161081  RH  049%=      5-min Rain = 0
KCA1 192131Z 32017KT 02/M08 A3024 RMK A01 T00171080  RH  049%=      5-min Rain = 0
KCA1 192132Z 33015KT 02/M08 A3024 RMK A01 T00161081  RH  049%=      5-min Rain = 0
KCA1 192133Z 34015KT 02/M08 A3024 RMK A01 T00161081  RH  049%=      5-min Rain = 0
KCA1 192134Z 34014KT 02/M08 A3024 RMK A01 T00151081  RH  049%=      5-min Rain = 0
KCA1 192135Z 33019G25KT 02/M08 A3024 RMK A01 T00161079  RH  049%=      5-min Rain = 0
KCA1 192136Z 34016KT 02/M08 A3024 RMK A01 T00161080  RH  049%=      5-min Rain = 0
KCA1 192137Z 32016KT 02/M08 A3024 RMK A01 T00161079  RH  049%=      5-min Rain = 0
KCA1 192138Z 32014KT 02/M08 A3024 RMK A01 T00161079  RH  049%=      5-min Rain = 0
KCA1 192139Z 33014KT 02/M08 A3024 RMK A01 T00151079  RH  050%=      5-min Rain = 0
KCA1 192140Z 34015KT 02/M08 A3024 RMK A01 T00151079  RH  050%=      5-min Rain = 0
KCA1 192141Z 33015KT 02/M08 A3024 RMK A01 T00161079  RH  049%=      5-min Rain = 0
KCA1 192142Z 33015KT 02/M08 A3024 RMK A01 T00161079  RH  049%=      5-min Rain = 0
KCA1 192143Z 33016KT 02/M08 A3024 RMK A01 T00161078  RH  050%=      5-min Rain = 0
KCA1 192144Z 33015KT 02/M08 A3024 RMK A01 T00161078  RH  050%=      5-min Rain = 0
KCA1 192145Z 32014KT 02/M08 A3024 RMK A01 T00161078  RH  050%=      5-min Rain = 0
KCA1 192146Z 32013G18KT 02/M08 A3024 RMK A01 T00171077  RH  050%=      5-min Rain = 0
KCA1 192147Z 33015KT 02/M08 A3024 RMK A01 T00181077  RH  049%=      5-min Rain = 0
KCA1 192148Z 32014KT 02/M08 A3024 RMK A01 T00171078  RH  049%=      5-min Rain = 0
KCA1 192149Z 33016KT 02/M08 A3024 RMK A01 T00171078  RH  049%=      5-min Rain = 0
KCA1 192150Z 32014KT 02/M08 A3024 RMK A01 T00171078  RH  049%=      5-min Rain = 0
KCA1 192151Z 33015KT 02/M08 A3024 RMK A01 T00191076  RH  049%=      5-min Rain = 0
KCA1 192152Z 34016KT 02/M08 A3024 RMK A01 T00191077  RH  049%=      5-min Rain = 0
KCA1 192153Z 33014KT 02/M08 A3024 RMK A01 T00181078  RH  049%=      5-min Rain = 0
KCA1 192154Z 33017KT 02/M08 A3024 RMK A01 T00181077  RH  049%=      5-min Rain = 0
KCA1 192155Z 34016KT 02/M08 A3024 RMK A01 T00171077  RH  049%=      5-min Rain = 0
KCA1 192156Z 33014KT 02/M08 A3024 RMK A01 T00161078  RH  050%=      5-min Rain = 0
KCA1 192157Z 33011KT 02/M08 A3024 RMK A01 T00161077  RH  050%=      5-min Rain = 0
KCA1 192158Z 33011KT 02/M08 A3024 RMK A01 T00151077  RH  050%=      5-min Rain = 0
KCA1 192159Z 34014KT 02/M08 A3024 RMK A01 T00171075  RH  050%=      5-min Rain = 0
KCA1 192200Z 35012KT 02/M07 A3024 RMK A01 T00191074  RH  050%=      5-min Rain = 0
KCA1 192201Z 35014KT 02/M08 A3024 RMK A01 T00201075  RH  050%=      5-min Rain = 0
KCA1 192202Z 34011G16KT 02/M08 A3024 RMK A01 T00191076  RH  049%=      5-min Rain = 0
KCA1 192203Z 33009KT 02/M07 A3024 RMK A01 T00191074  RH  050%=      5-min Rain = 0
KCA1 192204Z 33011KT 02/M07 A3024 RMK A01 T00221072  RH  050%=      5-min Rain = 0
KCA1 192205Z 34010KT 02/M07 A3024 RMK A01 T00231073  RH  049%=      5-min Rain = 0
KCA1 192206Z 33012KT 02/M07 A3024 RMK A01 T00231074  RH  049%=      5-min Rain = 0
KCA1 192207Z 33014KT 02/M07 A3024 RMK A01 T00231074  RH  049%=      5-min Rain = 0
KCA1 192208Z 33014KT 02/M08 A3024 RMK A01 T00211075  RH  049%=      5-min Rain = 0
KCA1 192209Z 33012KT 02/M08 A3024 RMK A01 T00191076  RH  050%=      5-min Rain = 0
KCA1 192210Z 31011KT 02/M08 A3025 RMK A01 T00171075  RH  050%=      5-min Rain = 0
KCA1 192211Z 33011KT 02/M08 A3025 RMK A01 T00171075  RH  051%=      5-min Rain = 0
KCA1 192212Z 33015KT 02/M07 A3025 RMK A01 T00171074  RH  051%=      5-min Rain = 0
KCA1 192213Z 34013KT 02/M07 A3025 RMK A01 T00171074  RH  051%=      5-min Rain = 0
KCA1 192214Z 34011KT 02/M07 A3025 RMK A01 T00171073  RH  051%=      5-min Rain = 0
KCA1 192215Z 33011KT 02/M07 A3025 RMK A01 T00181072  RH  051%=      5-min Rain = 0
KCA1 192216Z 34010KT 02/M07 A3025 RMK A01 T00201071  RH  051%=      5-min Rain = 0
KCA1 192217Z 33009KT 02/M07 A3025 RMK A01 T00211071  RH  050%=      5-min Rain = 0
KCA1 192218Z 34008KT 02/M07 A3025 RMK A01 T00211073  RH  050%=      5-min Rain = 0
KCA1 192219Z 35009KT 02/M07 A3025 RMK A01 T00201072  RH  050%=      5-min Rain = 0
KCA1 192220Z 34011KT 02/M07 A3025 RMK A01 T00211071  RH  050%=      5-min Rain = 0
KCA1 192221Z 33011KT 02/M07 A3025 RMK A01 T00201072  RH  050%=      5-min Rain = 0
KCA1 192222Z 33010KT 02/M07 A3025 RMK A01 T00191073  RH  051%=      5-min Rain = 0
KCA1 192223Z 34010KT 02/M07 A3025 RMK A01 T00191071  RH  051%=      5-min Rain = 0
KCA1 192224Z 34013KT 02/M07 A3025 RMK A01 T00201070  RH  052%=      5-min Rain = 0
KCA1 192225Z 35014KT 02/M07 A3025 RMK A01 T00201070  RH  051%=      5-min Rain = 0
KCA1 192226Z 35014KT 02/M07 A3025 RMK A01 T00191071  RH  051%=      5-min Rain = 0
KCA1 192227Z 35014KT 02/M07 A3025 RMK A01 T00181070  RH  052%=      5-min Rain = 0
KCA1 192228Z 34012KT 02/M07 A3025 RMK A01 T00181070  RH  052%=      5-min Rain = 0
KCA1 192229Z 34010KT 02/M07 A3025 RMK A01 T00171071  RH  052%=      5-min Rain = 0
KCA1 192230Z 35011G17KT 02/M07 A3025 RMK A01 T00181070  RH  052%=      5-min Rain = 0
KCA1 192231Z 34015KT 02/M07 A3025 RMK A01 T00191069  RH  052%=      5-min Rain = 0
KCA1 192232Z 34012KT 02/M07 A3025 RMK A01 T00191069  RH  052%=      5-min Rain = 0
KCA1 192233Z 33012KT 02/M07 A3025 RMK A01 T00191069  RH  052%=      5-min Rain = 0
KCA1 192234Z 34014KT 02/M07 A3024 RMK A01 T00191068  RH  052%=      5-min Rain = 0
KCA1 192235Z 33013KT 02/M07 A3024 RMK A01 T00181068  RH  053%=      5-min Rain = 0
KCA1 192236Z 33014KT 02/M07 A3025 RMK A01 T00181068  RH  053%=      5-min Rain = 0
KCA1 192237Z 33012KT 02/M07 A3024 RMK A01 T00181068  RH  053%=      5-min Rain = 0
KCA1 192238Z 32011KT 02/M07 A3024 RMK A01 T00181068  RH  053%=      5-min Rain = 0
KCA1 192239Z 33009KT 02/M07 A3024 RMK A01 T00171068  RH  053%=      5-min Rain = 0
KCA1 192240Z 33010KT 02/M07 A3025 RMK A01 T00181067  RH  053%=      5-min Rain = 0
KCA1 192241Z 33012KT 02/M07 A3025 RMK A01 T00191067  RH  053%=      5-min Rain = 0
KCA1 192242Z 33013KT 02/M07 A3025 RMK A01 T00191067  RH  053%=      5-min Rain = 0
KCA1 192243Z 34013KT 02/M07 A3025 RMK A01 T00191066  RH  053%=      5-min Rain = 0
KCA1 192244Z 33011KT 02/M07 A3025 RMK A01 T00191066  RH  053%=      5-min Rain = 0
KCA1 192245Z 33013KT 02/M07 A3025 RMK A01 T00191066  RH  053%=      5-min Rain = 0
KCA1 192246Z 33013KT 02/M07 A3025 RMK A01 T00191066  RH  053%=      5-min Rain = 0
KCA1 192247Z 34012KT 02/M07 A3025 RMK A01 T00191065  RH  054%=      5-min Rain = 0
KCA1 192248Z 34010KT 02/M06 A3025 RMK A01 T00201064  RH  054%=      5-min Rain = 0
KCA1 192249Z 34011KT 02/M06 A3025 RMK A01 T00211063  RH  054%=      5-min Rain = 0
KCA1 192250Z 34008KT 02/M06 A3025 RMK A01 T00201064  RH  054%=      5-min Rain = 0
KCA1 192251Z 35012KT 02/M06 A3025 RMK A01 T00211064  RH  054%=      5-min Rain = 0
KCA1 192252Z 35011KT 02/M06 A3025 RMK A01 T00201064  RH  053%=      5-min Rain = 0
KCA1 192253Z 34011KT 02/M06 A3025 RMK A01 T00201064  RH  054%=      5-min Rain = 0
KCA1 192254Z 34012KT 02/M06 A3025 RMK A01 T00201064  RH  054%=      5-min Rain = 0
KCA1 192255Z 33011KT 02/M06 A3025 RMK A01 T00191064  RH  054%=      5-min Rain = 0
KCA1 192256Z 33013KT 02/M06 A3025 RMK A01 T00201063  RH  054%=      5-min Rain = 0
KCA1 192257Z 34011KT 02/M06 A3025 RMK A01 T00191063  RH  054%=      5-min Rain = 0
KCA1 192258Z 34012KT 02/M06 A3025 RMK A01 T00191063  RH  054%=      5-min Rain = 0
KCA1 192259Z 33011KT 02/M06 A3025 RMK A01 T00191063  RH  055%=      5-min Rain = 0
KCA1 192300Z 33011KT 02/M06 A3025 RMK A01 T00191063  RH  055%=      5-min Rain = 0
KCA1 192301Z 33010KT 02/M06 A3025 RMK A01 T00191063  RH  055%=      5-min Rain = 0
KCA1 192302Z 33011KT 02/M06 A3025 RMK A01 T00191062  RH  055%=      5-min Rain = 0
KCA1 192303Z 34012KT 02/M06 A3025 RMK A01 T00191063  RH  055%=      5-min Rain = 0
KCA1 192304Z 35011KT 02/M06 A3025 RMK A01 T00201062  RH  055%=      5-min Rain = 0
KCA1 192305Z 34011KT 02/M06 A3025 RMK A01 T00191062  RH  055%=      5-min Rain = 0
KCA1 192306Z 33011KT 02/M06 A3025 RMK A01 T00191062  RH  055%=      5-min Rain = 0
KCA1 192307Z 34010KT 02/M06 A3026 RMK A01 T00191062  RH  055%=      5-min Rain = 0
KCA1 192308Z 34011KT 02/M06 A3026 RMK A01 T00181062  RH  055%=      5-min Rain = 0
KCA1 192309Z 34011KT 02/M06 A3025 RMK A01 T00181061  RH  055%=      5-min Rain = 0
KCA1 192310Z 34010KT 02/M06 A3025 RMK A01 T00181062  RH  056%=      5-min Rain = 0
KCA1 192311Z 36010KT 02/M06 A3026 RMK A01 T00181062  RH  056%=      5-min Rain = 0
KCA1 192312Z 35010KT 02/M06 A3025 RMK A01 T00171063  RH  055%=      5-min Rain = 0
KCA1 192313Z 00010KT 02/M06 A3025 RMK A01 T00161063  RH  055%=      5-min Rain = 0
KCA1 192314Z 35009KT 02/M06 A3025 RMK A01 T00151064  RH  056%=      5-min Rain = 0
KCA1 192315Z 34010KT 02/M06 A3025 RMK A01 T00151063  RH  056%=      5-min Rain = 0
KCA1 192316Z 35009KT 02/M06 A3026 RMK A01 T00151062  RH  056%=      5-min Rain = 0
KCA1 192317Z 35011KT 02/M06 A3026 RMK A01 T00151063  RH  056%=      5-min Rain = 0
KCA1 192318Z 35010KT 01/M06 A3025 RMK A01 T00141064  RH  056%=      5-min Rain = 0
KCA1 192319Z 35008KT 01/M06 A3025 RMK A01 T00131064  RH  056%=      5-min Rain = 0
KCA1 192320Z 35009KT 01/M06 A3025 RMK A01 T00121064  RH  057%=      5-min Rain = 0
KCA1 192321Z 35010KT 01/M07 A3025 RMK A01 T00121065  RH  057%=      5-min Rain = 0
KCA1 192322Z 36010KT 01/M07 A3025 RMK A01 T00111065  RH  057%=      5-min Rain = 0
KCA1 192323Z 35008KT 01/M06 A3025 RMK A01 T00111064  RH  057%=      5-min Rain = 0
KCA1 192324Z 35008KT 01/M06 A3025 RMK A01 T00111064  RH  057%=      5-min Rain = 0
KCA1 192325Z 35009KT 01/M06 A3026 RMK A01 T00111064  RH  057%=      5-min Rain = 0
KCA1 192326Z 34007KT 01/M06 A3026 RMK A01 T00111064  RH  057%=      5-min Rain = 0
KCA1 192327Z 35006KT 01/M06 A3026 RMK A01 T00111064  RH  057%=      5-min Rain = 0
KCA1 192328Z 35008KT 01/M06 A3026 RMK A01 T00111064  RH  057%=      5-min Rain = 0
KCA1 192329Z 35009KT 01/M06 A3026 RMK A01 T00101064  RH  057%=      5-min Rain = 0
KCA1 192330Z 35008KT 01/M06 A3025 RMK A01 T00101064  RH  058%=      5-min Rain = 0
KCA1 192331Z 36009KT 01/M06 A3025 RMK A01 T00101064  RH  058%=      5-min Rain = 0
KCA1 192332Z 36008KT 01/M06 A3025 RMK A01 T00091063  RH  058%=      5-min Rain = 0
KCA1 192333Z 35008KT 01/M06 A3025 RMK A01 T00091063  RH  058%=      5-min Rain = 0
KCA1 192334Z 36009KT 01/M06 A3025 RMK A01 T00091063  RH  059%=      5-min Rain = 0
KCA1 192335Z 36008KT 01/M06 A3025 RMK A01 T00091063  RH  059%=      5-min Rain = 0
KCA1 192336Z 36009KT 01/M06 A3025 RMK A01 T00081064  RH  059%=      5-min Rain = 0
KCA1 192337Z 35009KT 01/M06 A3025 RMK A01 T00081063  RH  059%=      5-min Rain = 0
KCA1 192338Z 35010KT 01/M06 A3026 RMK A01 T00071063  RH  059%=      5-min Rain = 0
KCA1 192339Z 35010KT 01/M06 A3026 RMK A01 T00061063  RH  060%=      5-min Rain = 0
KCA1 192340Z 35010KT 01/M06 A3026 RMK A01 T00061063  RH  060%=      5-min Rain = 0
KCA1 192341Z 35009KT 01/M06 A3026 RMK A01 T00061063  RH  060%=      5-min Rain = 0
KCA1 192342Z 35008KT 01/M06 A3026 RMK A01 T00061062  RH  060%=      5-min Rain = 0
KCA1 192343Z 34008KT 01/M06 A3026 RMK A01 T00061063  RH  060%=      5-min Rain = 0
KCA1 192344Z 35009KT 01/M06 A3026 RMK A01 T00051063  RH  060%=      5-min Rain = 0
KCA1 192345Z 35009KT 01/M06 A3026 RMK A01 T00051063  RH  061%=      5-min Rain = 0
KCA1 192346Z 35008KT 00/M06 A3026 RMK A01 T00041063  RH  061%=      5-min Rain = 0
KCA1 192347Z 35009KT 00/M06 A3026 RMK A01 T00031063  RH  061%=      5-min Rain = 0
KCA1 192348Z 35008KT 00/M06 A3026 RMK A01 T00031063  RH  061%=      5-min Rain = 0
KCA1 192349Z 35009KT 00/M06 A3026 RMK A01 T00031063  RH  061%=      5-min Rain = 0
KCA1 192350Z 35007KT 00/M06 A3026 RMK A01 T00021063  RH  061%=      5-min Rain = 0
KCA1 192351Z 35008KT 00/M06 A3026 RMK A01 T00021063  RH  061%=      5-min Rain = 0
KCA1 192352Z 35008KT 00/M06 A3026 RMK A01 T00011064  RH  062%=      5-min Rain = 0
KCA1 192353Z 35008KT 00/M06 A3026 RMK A01 T00011064  RH  062%=      5-min Rain = 0
KCA1 192354Z 35008KT 00/06 A3026 RMK A01 T00-00-64  RH  062%=      5-min Rain = 0
KCA1 192355Z 35008KT M00/M07 A3026 RMK A01 T10021065  RH  063%=      5-min Rain = 0
KCA1 192356Z 35009KT M00/M07 A3026 RMK A01 T10031065  RH  063%=      5-min Rain = 0
KCA1 192357Z 35008KT M00/M07 A3025 RMK A01 T10041065  RH  063%=      5-min Rain = 0
KCA1 192358Z 35008KT M00/M07 A3025 RMK A01 T10041065  RH  063%=      5-min Rain = 0
KCA1 192359Z 35008KT M00/M07 A3025 RMK A01 T10041065  RH  063%=      5-min Rain = 0
KCA1 200000Z 35008KT M01/M07 A3025 RMK A01 T10051065  RH  064%=      5-min Rain = 0
KCA1 200001Z 36008KT M01/M07 A3025 RMK A01 T10061066  RH  064%=      5-min Rain = 0
KCA1 200002Z 36009KT M01/M07 A3025 RMK A01 T10071066  RH  064%=      5-min Rain = 0
KCA1 200003Z 36009KT M01/M07 A3025 RMK A01 T10071066  RH  065%=      5-min Rain = 0
KCA1 200004Z 36009KT M01/M07 A3025 RMK A01 T10081066  RH  065%=      5-min Rain = 0
KCA1 200005Z 00009KT M01/M07 A3025 RMK A01 T10081066  RH  065%=      5-min Rain = 0
KCA1 200006Z 36009KT M01/M07 A3026 RMK A01 T10091066  RH  065%=      5-min Rain = 0
KCA1 200007Z 36008KT M01/M07 A3026 RMK A01 T10091066  RH  065%=      5-min Rain = 0
KCA1 200008Z 35008KT M01/M07 A3026 RMK A01 T10101066  RH  066%=      5-min Rain = 0
KCA1 200009Z 36007KT M01/M07 A3026 RMK A01 T10101066  RH  066%=      5-min Rain = 0
KCA1 200010Z 35007KT M01/M07 A3026 RMK A01 T10101066  RH  066%=      5-min Rain = 0
KCA1 200011Z 36007KT M01/M07 A3026 RMK A01 T10101066  RH  066%=      5-min Rain = 0
KCA1 200012Z 36007KT M01/M07 A3026 RMK A01 T10111067  RH  066%=      5-min Rain = 0
KCA1 200013Z 36007KT M01/M07 A3026 RMK A01 T10121067  RH  066%=      5-min Rain = 0
KCA1 200014Z 00007KT M01/M07 A3026 RMK A01 T10131068  RH  066%=      5-min Rain = 0
KCA1 200015Z 00007KT M01/M07 A3026 RMK A01 T10141068  RH  067%=      5-min Rain = 0
KCA1 200016Z 00006KT M01/M07 A3026 RMK A01 T10141068  RH  067%=      5-min Rain = 0
KCA1 200017Z 00006KT M02/M07 A3026 RMK A01 T10151068  RH  067%=      5-min Rain = 0
KCA1 200018Z 00005KT M02/M07 A3026 RMK A01 T10161069  RH  067%=      5-min Rain = 0
KCA1 200019Z 00005KT M02/M07 A3026 RMK A01 T10161069  RH  067%=      5-min Rain = 0
KCA1 200020Z 01005KT M02/M07 A3026 RMK A01 T10171070  RH  067%=      5-min Rain = 0
KCA1 200021Z 00005KT M02/M07 A3026 RMK A01 T10181070  RH  068%=      5-min Rain = 0
KCA1 200022Z 01005KT M02/M07 A3026 RMK A01 T10191070  RH  068%=      5-min Rain = 0
KCA1 200023Z 01005KT M02/M07 A3026 RMK A01 T10201071  RH  068%=      5-min Rain = 0
KCA1 200024Z 01005KT M02/M07 A3026 RMK A01 T10201071  RH  068%=      5-min Rain = 0
KCA1 200025Z 01005KT M02/M07 A3026 RMK A01 T10211072  RH  068%=      5-min Rain = 0
KCA1 200026Z 01005KT M02/M07 A3026 RMK A01 T10221072  RH  069%=      5-min Rain = 0
KCA1 200027Z 01005KT M02/M07 A3026 RMK A01 T10221072  RH  069%=      5-min Rain = 0
KCA1 200028Z 01005KT M02/M07 A3026 RMK A01 T10231072  RH  069%=      5-min Rain = 0
KCA1 200029Z 01005KT M02/M07 A3026 RMK A01 T10241072  RH  069%=      5-min Rain = 0
KCA1 200030Z 01005KT M03/M07 A3026 RMK A01 T10251073  RH  069%=      5-min Rain = 0
KCA1 200031Z 01005KT M03/M07 A3026 RMK A01 T10251073  RH  070%=      5-min Rain = 0
KCA1 200032Z 01006KT M03/M07 A3026 RMK A01 T10251072  RH  070%=      5-min Rain = 0
KCA1 200033Z 01006KT M03/M07 A3026 RMK A01 T10251072  RH  070%=      5-min Rain = 0
KCA1 200034Z 00006KT M03/M07 A3027 RMK A01 T10251072  RH  070%=      5-min Rain = 0
KCA1 200035Z 00007KT M03/M07 A3027 RMK A01 T10261074  RH  070%=      5-min Rain = 0
KCA1 200036Z 00007KT M03/M08 A3027 RMK A01 T10291076  RH  070%=      5-min Rain = 0
KCA1 200037Z 00008KT M03/M08 A3027 RMK A01 T10311076  RH  071%=      5-min Rain = 0
KCA1 200038Z 00008KT M03/M08 A3027 RMK A01 T10321076  RH  071%=      5-min Rain = 0
KCA1 200039Z 00008KT M03/M08 A3027 RMK A01 T10321075  RH  072%=      5-min Rain = 0
KCA1 200040Z 00008KT M03/M07 A3027 RMK A01 T10321074  RH  073%=      5-min Rain = 0
KCA1 200041Z 01008KT M03/M07 A3027 RMK A01 T10321074  RH  073%=      5-min Rain = 0
KCA1 200042Z 01008KT M03/M07 A3027 RMK A01 T10311073  RH  073%=      5-min Rain = 0
KCA1 200043Z 01009KT M03/M07 A3027 RMK A01 T10301071  RH  073%=      5-min Rain = 0
KCA1 200044Z 00009KT M03/M07 A3027 RMK A01 T10291071  RH  073%=      5-min Rain = 0
KCA1 200045Z 00009KT M03/M07 A3027 RMK A01 T10281071  RH  072%=      5-min Rain = 0
KCA1 200046Z 00009KT M03/M07 A3027 RMK A01 T10281071  RH  072%=      5-min Rain = 0
KCA1 200047Z 00008KT M03/M07 A3027 RMK A01 T10281071  RH  072%=      5-min Rain = 0
KCA1 200048Z 00008KT M03/M07 A3027 RMK A01 T10271070  RH  072%=      5-min Rain = 0
KCA1 200049Z 00008KT M03/M07 A3027 RMK A01 T10271070  RH  072%=      5-min Rain = 0
KCA1 200050Z 01008KT M03/M07 A3027 RMK A01 T10271070  RH  072%=      5-min Rain = 0
KCA1 200051Z 00008KT M03/M07 A3027 RMK A01 T10271071  RH  072%=      5-min Rain = 0
KCA1 200052Z 01008KT M03/M07 A3026 RMK A01 T10271070  RH  072%=      5-min Rain = 0
KCA1 200053Z 01008KT M03/M07 A3026 RMK A01 T10271070  RH  072%=      5-min Rain = 0
KCA1 200054Z 01008KT M03/M07 A3026 RMK A01 T10261070  RH  072%=      5-min Rain = 0
KCA1 200055Z 01008KT M03/M07 A3026 RMK A01 T10261070  RH  072%=      5-min Rain = 0
KCA1 200056Z 01008KT M03/M07 A3026 RMK A01 T10261070  RH  072%=      5-min Rain = 0
KCA1 200057Z 01008KT M03/M07 A3026 RMK A01 T10261070  RH  072%=      5-min Rain = 0
KCA1 200058Z 01008KT M03/M07 A3026 RMK A01 T10271070  RH  072%=      5-min Rain = 0
KCA1 200059Z 00008KT M03/M07 A3026 RMK A01 T10271071  RH  072%=      5-min Rain = 0
KCA1 200100Z 01008KT M03/M07 A3026 RMK A01 T10281071  RH  072%=      5-min Rain = 0
KCA1 200101Z 01008KT M03/M07 A3026 RMK A01 T10281071  RH  072%=      5-min Rain = 0
KCA1 200102Z 01008KT M03/M07 A3026 RMK A01 T10291071  RH  073%=      5-min Rain = 0
KCA1 200103Z 01008KT M03/M07 A3026 RMK A01 T10291071  RH  073%=      5-min Rain = 0
KCA1 200104Z 01008KT M03/M07 A3026 RMK A01 T10281071  RH  073%=      5-min Rain = 0
KCA1 200105Z 01008KT M03/M07 A3026 RMK A01 T10291070  RH  073%=      5-min Rain = 0
KCA1 200106Z 01008KT M03/M07 A3026 RMK A01 T10281070  RH  073%=      5-min Rain = 0
KCA1 200107Z 01009KT M03/M07 A3026 RMK A01 T10291071  RH  073%=      5-min Rain = 0
KCA1 200108Z 01009KT M03/M07 A3026 RMK A01 T10281071  RH  073%=      5-min Rain = 0
KCA1 200109Z 01009KT M03/M07 A3026 RMK A01 T10281071  RH  073%=      5-min Rain = 0
KCA1 200110Z 01009KT M03/M07 A3026 RMK A01 T10291071  RH  073%=      5-min Rain = 0
KCA1 200111Z 01008KT M03/M07 A3026 RMK A01 T10291071  RH  073%=      5-min Rain = 0
KCA1 200112Z 01009KT M03/M07 A3026 RMK A01 T10291071  RH  073%=      5-min Rain = 0
KCA1 200113Z 01008KT M03/M07 A3025 RMK A01 T10281071  RH  072%=      5-min Rain = 0
KCA1 200114Z 01008KT M03/M07 A3025 RMK A01 T10281071  RH  072%=      5-min Rain = 0
KCA1 200115Z 01008KT M03/M07 A3025 RMK A01 T10281071  RH  073%=      5-min Rain = 0
KCA1 200116Z 01007KT M03/M07 A3025 RMK A01 T10291071  RH  073%=      5-min Rain = 0
KCA1 200117Z 01007KT M03/M07 A3025 RMK A01 T10291071  RH  073%=      5-min Rain = 0
KCA1 200118Z 01008KT M03/M07 A3025 RMK A01 T10291071  RH  073%=      5-min Rain = 0
KCA1 200119Z 01008KT M03/M07 A3025 RMK A01 T10301072  RH  073%=      5-min Rain = 0
KCA1 200120Z 01008KT M03/M07 A3025 RMK A01 T10301072  RH  073%=      5-min Rain = 0
KCA1 200121Z 01008KT M03/M07 A3025 RMK A01 T10311072  RH  073%=      5-min Rain = 0
KCA1 200122Z 01007KT M03/M07 A3025 RMK A01 T10311072  RH  073%=      5-min Rain = 0
KCA1 200123Z 01007KT M03/M07 A3025 RMK A01 T10321072  RH  074%=      5-min Rain = 0
KCA1 200124Z 01007KT M03/M07 A3025 RMK A01 T10321072  RH  074%=      5-min Rain = 0
KCA1 200125Z 01007KT M03/M07 A3025 RMK A01 T10321072  RH  074%=      5-min Rain = 0
KCA1 200126Z 01008KT M03/M07 A3025 RMK A01 T10321072  RH  074%=      5-min Rain = 0
KCA1 200127Z 01009KT M03/M07 A3025 RMK A01 T10321072  RH  074%=      5-min Rain = 0
KCA1 200128Z 01009KT M03/M07 A3025 RMK A01 T10331072  RH  074%=      5-min Rain = 0
KCA1 200129Z 02009KT M03/M07 A3025 RMK A01 T10331072  RH  074%=      5-min Rain = 0
KCA1 200130Z 02008KT M03/M07 A3025 RMK A01 T10331072  RH  074%=      5-min Rain = 0
KCA1 200131Z 02009KT M03/M07 A3025 RMK A01 T10331072  RH  074%=      5-min Rain = 0
KCA1 200132Z 02009KT M03/M07 A3025 RMK A01 T10331072  RH  074%=      5-min Rain = 0
KCA1 200133Z 03009KT M03/M07 A3025 RMK A01 T10331072  RH  074%=      5-min Rain = 0
KCA1 200134Z 03009KT M03/M07 A3025 RMK A01 T10331072  RH  074%=      5-min Rain = 0
KCA1 200135Z 03009KT M03/M07 A3025 RMK A01 T10331072  RH  074%=      5-min Rain = 0
KCA1 200136Z 03008KT M03/M07 A3025 RMK A01 T10331072  RH  074%=      5-min Rain = 0
KCA1 200137Z 03008KT M03/M07 A3025 RMK A01 T10341073  RH  075%=      5-min Rain = 0
KCA1 200138Z 03008KT M03/M07 A3025 RMK A01 T10341072  RH  075%=      5-min Rain = 0
KCA1 200139Z 03008KT M03/M07 A3025 RMK A01 T10341072  RH  075%=      5-min Rain = 0
KCA1 200140Z 03008KT M03/M07 A3024 RMK A01 T10331072  RH  075%=      5-min Rain = 0
KCA1 200141Z 03007KT M03/M07 A3024 RMK A01 T10341072  RH  075%=      5-min Rain = 0
KCA1 200142Z 03007KT M03/M07 A3025 RMK A01 T10341073  RH  074%=      5-min Rain = 0
KCA1 200143Z 02007KT M03/M07 A3025 RMK A01 T10341073  RH  074%=      5-min Rain = 0
KCA1 200144Z 02007KT M03/M07 A3025 RMK A01 T10341073  RH  074%=      5-min Rain = 0
KCA1 200145Z 02007KT M03/M07 A3025 RMK A01 T10341073  RH  075%=      5-min Rain = 0
KCA1 200146Z 02007KT M04/M07 A3025 RMK A01 T10351073  RH  075%=      5-min Rain = 0
KCA1 200147Z 02006KT M04/M07 A3025 RMK A01 T10351073  RH  075%=      5-min Rain = 0
KCA1 200148Z 02006KT M04/M07 A3025 RMK A01 T10351073  RH  075%=      5-min Rain = 0
KCA1 200149Z 02005KT M04/M07 A3025 RMK A01 T10361074  RH  075%=      5-min Rain = 0
KCA1 200150Z 03004KT M04/M07 A3025 RMK A01 T10361074  RH  075%=      5-min Rain = 0
KCA1 200151Z 03003KT M04/M07 A3025 RMK A01 T10371073  RH  076%=      5-min Rain = 0
KCA1 200152Z 03002KT M04/M07 A3025 RMK A01 T10371073  RH  076%=      5-min Rain = 0
KCA1 200153Z 03001KT M04/M07 A3025 RMK A01 T10381074  RH  076%=      5-min Rain = 0
KCA1 200154Z 03001KT M04/M07 A3025 RMK A01 T10381074  RH  076%=      5-min Rain = 0
KCA1 200155Z 06001KT M04/M07 A3025 RMK A01 T10381074  RH  076%=      5-min Rain = 0
KCA1 200156Z 03001KT M04/M07 A3025 RMK A01 T10391074  RH  076%=      5-min Rain = 0
KCA1 200157Z 02002KT M04/M07 A3025 RMK A01 T10391074  RH  077%=      5-min Rain = 0
KCA1 200158Z 02003KT M04/M07 A3025 RMK A01 T10401074  RH  077%=      5-min Rain = 0
KCA1 200159Z 03004KT M04/M07 A3025 RMK A01 T10401074  RH  077%=      5-min Rain = 0
KCA1 200200Z 02004KT M04/M08 A3025 RMK A01 T10411075  RH  077%=      5-min Rain = 0
KCA1 200201Z 02005KT M04/M08 A3025 RMK A01 T10421076  RH  077%=      5-min Rain = 0
KCA1 200202Z 02005KT M04/M08 A3025 RMK A01 T10421076  RH  078%=      5-min Rain = 0
KCA1 200203Z 03004KT M04/M08 A3025 RMK A01 T10431076  RH  078%=      5-min Rain = 0
KCA1 200204Z 03003KT M04/M08 A3026 RMK A01 T10431075  RH  078%=      5-min Rain = 0
KCA1 200205Z 05001KT M04/M08 A3026 RMK A01 T10431075  RH  079%=      5-min Rain = 0
KCA1 200206Z 17000KT M04/M08 A3026 RMK A01 T10441075  RH  079%=      5-min Rain = 0
KCA1 200207Z 17001KT M04/M08 A3026 RMK A01 T10441076  RH  079%=      5-min Rain = 0
KCA1 200208Z 19001KT M04/M08 A3026 RMK A01 T10441075  RH  079%=      5-min Rain = 0
KCA1 200209Z 03000KT M05/M08 A3026 RMK A01 T10451075  RH  079%=      5-min Rain = 0
KCA1 200210Z 07001KT M04/M07 A3026 RMK A01 T10431074  RH  079%=      5-min Rain = 0
KCA1 200211Z 01001KT M04/M07 A3026 RMK A01 T10421072  RH  079%=      5-min Rain = 0
KCA1 200212Z 01002KT M04/M07 A3026 RMK A01 T10401071  RH  079%=      5-min Rain = 0
KCA1 200213Z 00002KT M04/M07 A3026 RMK A01 T10381072  RH  078%=      5-min Rain = 0
KCA1 200214Z 01003KT M04/M07 A3026 RMK A01 T10381072  RH  077%=      5-min Rain = 0
KCA1 200215Z 00003KT M04/M07 A3026 RMK A01 T10381073  RH  077%=      5-min Rain = 0
KCA1 200216Z 00005KT M04/M07 A3026 RMK A01 T10381073  RH  077%=      5-min Rain = 0
KCA1 200217Z 36005KT M04/M07 A3026 RMK A01 T10381073  RH  077%=      5-min Rain = 0
KCA1 200218Z 36005KT M04/M07 A3026 RMK A01 T10381073  RH  077%=      5-min Rain = 0
KCA1 200219Z 36005KT M04/M07 A3026 RMK A01 T10371073  RH  077%=      5-min Rain = 0
KCA1 200220Z 36005KT M04/M07 A3026 RMK A01 T10361072  RH  076%=      5-min Rain = 0
KCA1 200221Z 00004KT M04/M07 A3026 RMK A01 T10361072  RH  076%=      5-min Rain = 0
KCA1 200222Z 01005KT M04/M07 A3026 RMK A01 T10361072  RH  076%=      5-min Rain = 0
KCA1 200223Z 01004KT M04/M07 A3026 RMK A01 T10361072  RH  076%=      5-min Rain = 0
KCA1 200224Z 01004KT M04/M07 A3026 RMK A01 T10361072  RH  076%=      5-min Rain = 0
KCA1 200225Z 01004KT M04/M07 A3026 RMK A01 T10371074  RH  076%=      5-min Rain = 0
KCA1 200226Z 01003KT M04/M07 A3026 RMK A01 T10381074  RH  076%=      5-min Rain = 0
KCA1 200227Z 36003KT M04/M08 A3026 RMK A01 T10391075  RH  076%=      5-min Rain = 0
KCA1 200228Z 35002KT M04/M08 A3026 RMK A01 T10401075  RH  077%=      5-min Rain = 0
KCA1 200229Z 29001KT M04/M08 A3026 RMK A01 T10401075  RH  077%=      5-min Rain = 0
KCA1 200230Z 23001KT M04/M08 A3026 RMK A01 T10411075  RH  077%=      5-min Rain = 0
KCA1 200231Z 24001KT M04/M08 A3027 RMK A01 T10411075  RH  078%=      5-min Rain = 0
KCA1 200232Z 22001KT M04/M08 A3027 RMK A01 T10421075  RH  078%=      5-min Rain = 0
KCA1 200233Z 20001KT M04/M07 A3027 RMK A01 T10421074  RH  078%=      5-min Rain = 0
KCA1 200234Z 20001KT M04/M07 A3026 RMK A01 T10411074  RH  078%=      5-min Rain = 0
KCA1 200235Z 21000KT M04/M07 A3026 RMK A01 T10411074  RH  078%=      5-min Rain = 0
KCA1 200236Z 00000KT M04/M07 A3026 RMK A01 T10411074  RH  078%=      5-min Rain = 0
KCA1 200237Z 02001KT M04/M07 A3026 RMK A01 T10411073  RH  078%=      5-min Rain = 0
KCA1 200238Z 01003KT M04/M07 A3026 RMK A01 T10401073  RH  078%=      5-min Rain = 0
KCA1 200239Z 02003KT M04/M07 A3026 RMK A01 T10391073  RH  078%=      5-min Rain = 0
KCA1 200240Z 02003KT M04/M07 A3026 RMK A01 T10371071  RH  077%=      5-min Rain = 0
KCA1 200241Z 01003KT M04/M07 A3026 RMK A01 T10361072  RH  076%=      5-min Rain = 0
KCA1 200242Z 01003KT M04/M07 A3026 RMK A01 T10351072  RH  076%=      5-min Rain = 0
KCA1 200243Z 02003KT M04/M07 A3026 RMK A01 T10351072  RH  075%=      5-min Rain = 0
KCA1 200244Z 02002KT M04/M07 A3026 RMK A01 T10361073  RH  075%=      5-min Rain = 0
KCA1 200245Z 02001KT M04/M07 A3026 RMK A01 T10371073  RH  076%=      5-min Rain = 0
KCA1 200246Z 02000KT M04/M07 A3026 RMK A01 T10371073  RH  076%=      5-min Rain = 0
KCA1 200247Z 25000KT M04/M07 A3026 RMK A01 T10381074  RH  076%=      5-min Rain = 0
KCA1 200248Z 23001KT M04/M08 A3026 RMK A01 T10401075  RH  077%=      5-min Rain = 0
KCA1 200249Z 22002KT M04/M08 A3026 RMK A01 T10421075  RH  077%=      5-min Rain = 0
KCA1 200250Z 21001KT M04/M08 A3026 RMK A01 T10431076  RH  078%=      5-min Rain = 0
KCA1 200251Z 00000KT M04/M08 A3027 RMK A01 T10431075  RH  078%=      5-min Rain = 0
KCA1 200252Z 00000KT M04/M08 A3027 RMK A01 T10431075  RH  079%=      5-min Rain = 0
KCA1 200253Z 33000KT M04/M07 A3027 RMK A01 T10431074  RH  079%=      5-min Rain = 0
KCA1 200254Z 35002KT M04/M07 A3027 RMK A01 T10431074  RH  079%=      5-min Rain = 0
KCA1 200255Z 00002KT M04/M07 A3027 RMK A01 T10421074  RH  079%=      5-min Rain = 0
KCA1 200256Z 35003KT M04/M07 A3027 RMK A01 T10421074  RH  078%=      5-min Rain = 0
KCA1 200257Z 35002KT M04/M07 A3027 RMK A01 T10411073  RH  078%=      5-min Rain = 0
KCA1 200258Z 34001KT M04/M07 A3027 RMK A01 T10401073  RH  078%=      5-min Rain = 0
KCA1 200259Z 32002KT M04/M07 A3027 RMK A01 T10401073  RH  078%=      5-min Rain = 0
KCA1 200300Z 31002KT M04/M07 A3027 RMK A01 T10401074  RH  078%=      5-min Rain = 0
KCA1 200301Z 25002KT M04/M07 A3028 RMK A01 T10401074  RH  077%=      5-min Rain = 0
KCA1 200302Z 23004KT M04/M08 A3028 RMK A01 T10411075  RH  077%=      5-min Rain = 0
KCA1 200303Z 21004KT M04/M08 A3028 RMK A01 T10421077  RH  077%=      5-min Rain = 0
KCA1 200304Z 21004KT M05/M08 A3028 RMK A01 T10451079  RH  077%=      5-min Rain = 0
KCA1 200305Z 21004KT M05/M08 A3028 RMK A01 T10471078  RH  079%=      5-min Rain = 0
KCA1 200306Z 21003KT M05/M08 A3028 RMK A01 T10481077  RH  080%=      5-min Rain = 0
KCA1 200307Z 21002KT M05/M08 A3028 RMK A01 T10481076  RH  081%=      5-min Rain = 0
KCA1 200308Z 21002KT M05/M08 A3028 RMK A01 T10471075  RH  081%=      5-min Rain = 0
KCA1 200309Z 21001KT M05/M07 A3028 RMK A01 T10471074  RH  081%=      5-min Rain = 0
KCA1 200310Z 21001KT M05/M07 A3028 RMK A01 T10471074  RH  081%=      5-min Rain = 0
KCA1 200311Z 21000KT M05/M07 A3028 RMK A01 T10471074  RH  081%=      5-min Rain = 0
KCA1 200312Z 00000KT M05/M07 A3028 RMK A01 T10471074  RH  081%=      5-min Rain = 0
KCA1 200313Z 00000KT M05/M07 A3028 RMK A01 T10471074  RH  082%=      5-min Rain = 0
KCA1 200314Z 00000KT M05/M07 A3028 RMK A01 T10481074  RH  082%=      5-min Rain = 0
KCA1 200315Z 00000KT M05/M07 A3028 RMK A01 T10481073  RH  083%=      5-min Rain = 0
KCA1 200316Z 00000KT M05/M07 A3028 RMK A01 T10481073  RH  083%=      5-min Rain = 0
KCA1 200317Z 21000KT M05/M07 A3028 RMK A01 T10481073  RH  083%=      5-min Rain = 0
KCA1 200318Z 21001KT M05/M07 A3028 RMK A01 T10491073  RH  083%=      5-min Rain = 0
KCA1 200319Z 21001KT M05/M07 A3028 RMK A01 T10491074  RH  083%=      5-min Rain = 0
KCA1 200320Z 21001KT M05/M07 A3028 RMK A01 T10501074  RH  083%=      5-min Rain = 0
KCA1 200321Z 21001KT M05/M07 A3028 RMK A01 T10501074  RH  084%=      5-min Rain = 0
KCA1 200322Z 21001KT M05/M07 A3028 RMK A01 T10501073  RH  084%=      5-min Rain = 0
KCA1 200323Z 21001KT M05/M07 A3028 RMK A01 T10481072  RH  084%=      5-min Rain = 0
KCA1 200324Z 21002KT M05/M07 A3028 RMK A01 T10471071  RH  083%=      5-min Rain = 0
KCA1 200325Z 21001KT M05/M07 A3028 RMK A01 T10461071  RH  082%=      5-min Rain = 0
KCA1 200326Z 21000KT M05/M07 A3028 RMK A01 T10451072  RH  082%=      5-min Rain = 0
KCA1 200327Z 00000KT M05/M07 A3028 RMK A01 T10461072  RH  082%=      5-min Rain = 0
KCA1 200328Z 12000KT M05/M07 A3028 RMK A01 T10461072  RH  082%=      5-min Rain = 0
KCA1 200329Z 12001KT M05/M07 A3028 RMK A01 T10451072  RH  082%=      5-min Rain = 0
KCA1 200330Z 12001KT M04/M07 A3028 RMK A01 T10441071  RH  082%=      5-min Rain = 0
KCA1 200331Z 12002KT M04/M07 A3028 RMK A01 T10441071  RH  081%=      5-min Rain = 0
KCA1 200332Z 12002KT M04/M07 A3028 RMK A01 T10441072  RH  081%=      5-min Rain = 0
KCA1 200333Z 14002KT M05/M07 A3028 RMK A01 T10451072  RH  081%=      5-min Rain = 0
KCA1 200334Z 15002KT M05/M07 A3028 RMK A01 T10451072  RH  082%=      5-min Rain = 0
KCA1 200335Z 16002KT M05/M07 A3028 RMK A01 T10451072  RH  082%=      5-min Rain = 0
KCA1 200336Z 16003KT M05/M07 A3028 RMK A01 T10461073  RH  082%=      5-min Rain = 0
KCA1 200337Z 16003KT M05/M07 A3028 RMK A01 T10471073  RH  082%=      5-min Rain = 0
KCA1 200338Z 16003KT M05/M07 A3028 RMK A01 T10481074  RH  082%=      5-min Rain = 0
KCA1 200339Z 16002KT M05/M07 A3028 RMK A01 T10491074  RH  083%=      5-min Rain = 0
KCA1 200340Z 16002KT M05/M08 A3027 RMK A01 T10501075  RH  083%=      5-min Rain = 0
KCA1 200341Z 16002KT M05/M08 A3027 RMK A01 T10521075  RH  084%=      5-min Rain = 0
KCA1 200342Z 16001KT M05/M08 A3027 RMK A01 T10521075  RH  084%=      5-min Rain = 0
KCA1 200343Z 14001KT M05/M07 A3027 RMK A01 T10521074  RH  085%=      5-min Rain = 0
KCA1 200344Z 12001KT M05/M07 A3027 RMK A01 T10501072  RH  084%=      5-min Rain = 0
KCA1 200345Z 11001KT M05/M07 A3027 RMK A01 T10491072  RH  084%=      5-min Rain = 0
KCA1 200346Z 10001KT M05/M07 A3027 RMK A01 T10491074  RH  083%=      5-min Rain = 0
KCA1 200347Z 10001KT M05/M08 A3027 RMK A01 T10501075  RH  083%=      5-min Rain = 0
KCA1 200348Z 10001KT M05/M08 A3026 RMK A01 T10511075  RH  083%=      5-min Rain = 0
KCA1 200349Z 09001KT M05/M08 A3026 RMK A01 T10521075  RH  084%=      5-min Rain = 0
KCA1 200350Z 08002KT M05/M08 A3026 RMK A01 T10531075  RH  084%=      5-min Rain = 0
KCA1 200351Z 08002KT M05/M08 A3026 RMK A01 T10531075  RH  084%=      5-min Rain = 0
KCA1 200352Z 08002KT M05/M07 A3026 RMK A01 T10531074  RH  085%=      5-min Rain = 0
KCA1 200353Z 08002KT M05/M07 A3026 RMK A01 T10531074  RH  085%=      5-min Rain = 0
KCA1 200354Z 08002KT M05/M07 A3026 RMK A01 T10531074  RH  085%=      5-min Rain = 0
KCA1 200355Z 08002KT M05/M07 A3026 RMK A01 T10531073  RH  085%=      5-min Rain = 0
KCA1 200356Z 08002KT M05/M07 A3027 RMK A01 T10521073  RH  085%=      5-min Rain = 0
KCA1 200357Z 09002KT M05/M07 A3027 RMK A01 T10521073  RH  085%=      5-min Rain = 0
KCA1 200358Z 11002KT M05/M07 A3026 RMK A01 T10511073  RH  085%=      5-min Rain = 0
KCA1 200359Z 11002KT M05/M07 A3026 RMK A01 T10511073  RH  085%=      5-min Rain = 0
KCA1 200400Z 11002KT M05/M07 A3026 RMK A01 T10511072  RH  085%=      5-min Rain = 0
KCA1 200401Z 12003KT M05/M07 A3026 RMK A01 T10491071  RH  085%=      5-min Rain = 0
KCA1 200402Z 12003KT M05/M07 A3026 RMK A01 T10491072  RH  084%=      5-min Rain = 0
KCA1 200403Z 12003KT M05/M07 A3026 RMK A01 T10491072  RH  084%=      5-min Rain = 0
KCA1 200404Z 13003KT M05/M07 A3026 RMK A01 T10481071  RH  084%=      5-min Rain = 0
KCA1 200405Z 13003KT M05/M07 A3026 RMK A01 T10471071  RH  083%=      5-min Rain = 0
KCA1 200406Z 13002KT M05/M07 A3026 RMK A01 T10471071  RH  083%=      5-min Rain = 0
KCA1 200407Z 13002KT M05/M07 A3026 RMK A01 T10461071  RH  083%=      5-min Rain = 0
KCA1 200408Z 11002KT M05/M07 A3026 RMK A01 T10461071  RH  083%=      5-min Rain = 0
KCA1 200409Z 11002KT M05/M07 A3026 RMK A01 T10461071  RH  082%=      5-min Rain = 0
KCA1 200410Z 10002KT M05/M07 A3026 RMK A01 T10451071  RH  082%=      5-min Rain = 0
KCA1 200411Z 10002KT M05/M07 A3026 RMK A01 T10451071  RH  082%=      5-min Rain = 0
KCA1 200412Z 11002KT M04/M07 A3026 RMK A01 T10441071  RH  082%=      5-min Rain = 0
KCA1 200413Z 11002KT M05/M07 A3026 RMK A01 T10451072  RH  081%=      5-min Rain = 0
KCA1 200414Z 11002KT M04/M07 A3026 RMK A01 T10441072  RH  081%=      5-min Rain = 0
KCA1 200415Z 11003KT M04/M07 A3026 RMK A01 T10441071  RH  081%=      5-min Rain = 0
KCA1 200416Z 11003KT M04/M07 A3026 RMK A01 T10431071  RH  081%=      5-min Rain = 0
KCA1 200417Z 11002KT M04/M07 A3026 RMK A01 T10421071  RH  080%=      5-min Rain = 0
KCA1 200418Z 11002KT M04/M07 A3026 RMK A01 T10421071  RH  080%=      5-min Rain = 0
KCA1 200419Z 11001KT M04/M07 A3027 RMK A01 T10421072  RH  080%=      5-min Rain = 0
KCA1 200420Z 11001KT M04/M07 A3026 RMK A01 T10411071  RH  080%=      5-min Rain = 0
KCA1 200421Z 11001KT M04/M07 A3026 RMK A01 T10401070  RH  079%=      5-min Rain = 0
KCA1 200422Z 11001KT M04/M07 A3026 RMK A01 T10391070  RH  079%=      5-min Rain = 0
KCA1 200423Z 11001KT M04/M07 A3026 RMK A01 T10391070  RH  079%=      5-min Rain = 0
KCA1 200424Z 08001KT M04/M07 A3026 RMK A01 T10401072  RH  079%=      5-min Rain = 0
KCA1 200425Z 07002KT M04/M08 A3026 RMK A01 T10441075  RH  079%=      5-min Rain = 0
KCA1 200426Z 07002KT M05/M08 A3026 RMK A01 T10481078  RH  079%=      5-min Rain = 0
KCA1 200427Z 07001KT M05/M08 A3026 RMK A01 T10511079  RH  081%=      5-min Rain = 0
KCA1 200428Z 07000KT M05/M08 A3026 RMK A01 T10531079  RH  082%=      5-min Rain = 0
KCA1 200429Z 00000KT M05/M08 A3026 RMK A01 T10541079  RH  083%=      5-min Rain = 0
KCA1 200430Z 00000KT M05/M08 A3026 RMK A01 T10541078  RH  083%=      5-min Rain = 0
KCA1 200431Z 07000KT M05/M07 A3026 RMK A01 T10521074  RH  084%=      5-min Rain = 0
KCA1 200432Z 09002KT M05/M07 A3025 RMK A01 T10491072  RH  084%=      5-min Rain = 0
KCA1 200433Z 08003KT M05/M07 A3025 RMK A01 T10451069  RH  083%=      5-min Rain = 0
KCA1 200434Z 08004KT M04/M07 A3025 RMK A01 T10411070  RH  081%=      5-min Rain = 0
KCA1 200435Z 08004KT M04/M07 A3025 RMK A01 T10411072  RH  079%=      5-min Rain = 0
KCA1 200436Z 09003KT M04/M07 A3025 RMK A01 T10421073  RH  079%=      5-min Rain = 0
KCA1 200437Z 10002KT M04/M07 A3025 RMK A01 T10431074  RH  079%=      5-min Rain = 0
KCA1 200438Z 13002KT M04/M07 A3026 RMK A01 T10441074  RH  080%=      5-min Rain = 0
KCA1 200439Z 15002KT M05/M07 A3026 RMK A01 T10451074  RH  081%=      5-min Rain = 0
KCA1 200440Z 16003KT M05/M07 A3026 RMK A01 T10461074  RH  081%=      5-min Rain = 0
KCA1 200441Z 15002KT M05/M07 A3026 RMK A01 T10451073  RH  081%=      5-min Rain = 0
KCA1 200442Z 12002KT M04/M07 A3025 RMK A01 T10441073  RH  081%=      5-min Rain = 0
KCA1 200443Z 10003KT M04/M07 A3025 RMK A01 T10441073  RH  080%=      5-min Rain = 0
KCA1 200444Z 09003KT M05/M07 A3025 RMK A01 T10451073  RH  081%=      5-min Rain = 0
KCA1 200445Z 08004KT M05/M07 A3025 RMK A01 T10461074  RH  081%=      5-min Rain = 0
KCA1 200446Z 08003KT M05/M08 A3025 RMK A01 T10501078  RH  081%=      5-min Rain = 0
KCA1 200447Z 09003KT M05/M08 A3026 RMK A01 T10541081  RH  081%=      5-min Rain = 0
KCA1 200448Z 10002KT M06/M08 A3025 RMK A01 T10561081  RH  083%=      5-min Rain = 0
KCA1 200449Z 13002KT M06/M08 A3025 RMK A01 T10571080  RH  084%=      5-min Rain = 0
KCA1 200450Z 15002KT M06/M08 A3025 RMK A01 T10571078  RH  085%=      5-min Rain = 0
KCA1 200451Z 15002KT M06/M08 A3025 RMK A01 T10561076  RH  085%=      5-min Rain = 0
KCA1 200452Z 13003KT M05/M07 A3025 RMK A01 T10531074  RH  085%=      5-min Rain = 0
KCA1 200453Z 12003KT M05/M07 A3025 RMK A01 T10501073  RH  084%=      5-min Rain = 0
KCA1 200454Z 12003KT M05/M07 A3025 RMK A01 T10481073  RH  083%=      5-min Rain = 0
KCA1 200455Z 11003KT M05/M07 A3025 RMK A01 T10471073  RH  082%=      5-min Rain = 0
KCA1 200456Z 10003KT M05/M07 A3025 RMK A01 T10471074  RH  081%=      5-min Rain = 0
KCA1 200457Z 10004KT M05/M07 A3025 RMK A01 T10471074  RH  081%=      5-min Rain = 0
KCA1 200458Z 09005KT M05/M07 A3025 RMK A01 T10481074  RH  082%=      5-min Rain = 0
KCA1 200459Z 09005KT M05/M08 A3025 RMK A01 T10491076  RH  081%=      5-min Rain = 0
KCA1 200500Z 09005KT M05/M08 A3025 RMK A01 T10521078  RH  082%=      5-min Rain = 0
KCA1 200501Z 09004KT M05/M08 A3025 RMK A01 T10541079  RH  083%=      5-min Rain = 0
KCA1 200502Z 09005KT M06/M08 A3025 RMK A01 T10551079  RH  084%=      5-min Rain = 0
KCA1 200503Z 09005KT M06/M08 A3026 RMK A01 T10561078  RH  084%=      5-min Rain = 0
KCA1 200504Z 09005KT M06/M08 A3026 RMK A01 T10561078  RH  085%=      5-min Rain = 0
KCA1 200505Z 09005KT M06/M08 A3026 RMK A01 T10561077  RH  085%=      5-min Rain = 0
KCA1 200506Z 09005KT M06/M08 A3026 RMK A01 T10551076  RH  085%=      5-min Rain = 0
KCA1 200507Z 09005KT M05/M08 A3026 RMK A01 T10541075  RH  085%=      5-min Rain = 0
KCA1 200508Z 10004KT M05/M08 A3026 RMK A01 T10531075  RH  085%=      5-min Rain = 0
KCA1 200509Z 11004KT M05/M08 A3026 RMK A01 T10521075  RH  084%=      5-min Rain = 0
KCA1 200510Z 12003KT M05/M07 A3026 RMK A01 T10521074  RH  084%=      5-min Rain = 0
KCA1 200511Z 13003KT M05/M07 A3027 RMK A01 T10511074  RH  084%=      5-min Rain = 0
KCA1 200512Z 13002KT M05/M07 A3027 RMK A01 T10501074  RH  083%=      5-min Rain = 0
KCA1 200513Z 14002KT M05/M07 A3027 RMK A01 T10481073  RH  083%=      5-min Rain = 0
KCA1 200514Z 17001KT M05/M07 A3027 RMK A01 T10471073  RH  082%=      5-min Rain = 0
KCA1 200515Z 12002KT M05/M08 A3027 RMK A01 T10481076  RH  081%=      5-min Rain = 0
KCA1 200516Z 11001KT M05/M08 A3027 RMK A01 T10501078  RH  081%=      5-min Rain = 0
KCA1 200517Z 08001KT M05/M08 A3027 RMK A01 T10511079  RH  081%=      5-min Rain = 0
KCA1 200518Z 09001KT M05/M08 A3027 RMK A01 T10521079  RH  082%=      5-min Rain = 0
KCA1 200519Z 15001KT M05/M08 A3027 RMK A01 T10531078  RH  083%=      5-min Rain = 0
KCA1 200520Z 17002KT M05/M08 A3027 RMK A01 T10541078  RH  083%=      5-min Rain = 0
KCA1 200521Z 15002KT M06/M08 A3027 RMK A01 T10561079  RH  084%=      5-min Rain = 0
KCA1 200522Z 13002KT M06/M08 A3027 RMK A01 T10561078  RH  085%=      5-min Rain = 0
KCA1 200523Z 12002KT M06/M08 A3026 RMK A01 T10561078  RH  085%=      5-min Rain = 0
KCA1 200524Z 12003KT M06/M08 A3026 RMK A01 T10561077  RH  086%=      5-min Rain = 0
KCA1 200525Z 11003KT M06/M08 A3026 RMK A01 T10571078  RH  086%=      5-min Rain = 0
KCA1 200526Z 10003KT M06/M08 A3026 RMK A01 T10581079  RH  086%=      5-min Rain = 0
KCA1 200527Z 09004KT M06/M08 A3026 RMK A01 T10591079  RH  086%=      5-min Rain = 0
KCA1 200528Z 08004KT M06/M08 A3026 RMK A01 T10601080  RH  086%=      5-min Rain = 0
KCA1 200529Z 08005KT M06/M08 A3026 RMK A01 T10621081  RH  086%=      5-min Rain = 0
KCA1 200530Z 09005KT M06/M08 A3026 RMK A01 T10631081  RH  087%=      5-min Rain = 0
KCA1 200531Z 10005KT M06/M08 A3026 RMK A01 T10631081  RH  088%=      5-min Rain = 0
KCA1 200532Z 10006KT M06/M08 A3026 RMK A01 T10631080  RH  088%=      5-min Rain = 0
KCA1 200533Z 10006KT M06/M08 A3026 RMK A01 T10631079  RH  088%=      5-min Rain = 0
KCA1 200534Z 10007KT M06/M08 A3026 RMK A01 T10621078  RH  088%=      5-min Rain = 0
KCA1 200535Z 10007KT M06/M08 A3026 RMK A01 T10601077  RH  088%=      5-min Rain = 0
KCA1 200536Z 10007KT M06/M08 A3025 RMK A01 T10591076  RH  087%=      5-min Rain = 0
KCA1 200537Z 09007KT M06/M08 A3026 RMK A01 T10571076  RH  086%=      5-min Rain = 0
KCA1 200538Z 09007KT M06/M08 A3026 RMK A01 T10561076  RH  086%=      5-min Rain = 0
KCA1 200539Z 09007KT M06/M08 A3026 RMK A01 T10561076  RH  086%=      5-min Rain = 0
KCA1 200540Z 09007KT M06/M08 A3026 RMK A01 T10551076  RH  085%=      5-min Rain = 0
KCA1 200541Z 09007KT M06/M08 A3026 RMK A01 T10551076  RH  085%=      5-min Rain = 0
KCA1 200542Z 10007KT M06/M08 A3025 RMK A01 T10551076  RH  085%=      5-min Rain = 0
KCA1 200543Z 10007KT M05/M08 A3025 RMK A01 T10541075  RH  085%=      5-min Rain = 0
KCA1 200544Z 11006KT M05/M08 A3025 RMK A01 T10541076  RH  085%=      5-min Rain = 0
KCA1 200545Z 11006KT M05/M08 A3025 RMK A01 T10531076  RH  084%=      5-min Rain = 0
KCA1 200546Z 11007KT M05/M08 A3025 RMK A01 T10531076  RH  084%=      5-min Rain = 0
KCA1 200547Z 11007KT M05/M08 A3025 RMK A01 T10531076  RH  084%=      5-min Rain = 0
KCA1 200548Z 11007KT M05/M08 A3025 RMK A01 T10541077  RH  084%=      5-min Rain = 0
KCA1 200549Z 11007KT M06/M08 A3025 RMK A01 T10561079  RH  084%=      5-min Rain = 0
KCA1 200550Z 11007KT M06/M08 A3025 RMK A01 T10571080  RH  084%=      5-min Rain = 0
KCA1 200551Z 11006KT M06/M08 A3025 RMK A01 T10581080  RH  084%=      5-min Rain = 0
KCA1 200552Z 11006KT M06/M08 A3025 RMK A01 T10591080  RH  085%=      5-min Rain = 0
KCA1 200553Z 11006KT M06/M08 A3025 RMK A01 T10601081  RH  085%=      5-min Rain = 0
KCA1 200554Z 10006KT M06/M08 A3025 RMK A01 T10601081  RH  086%=      5-min Rain = 0
KCA1 200555Z 10007KT M06/M08 A3025 RMK A01 T10611081  RH  086%=      5-min Rain = 0
KCA1 200556Z 10007KT M06/M08 A3025 RMK A01 T10611081  RH  086%=      5-min Rain = 0
KCA1 200557Z 10006KT M06/M08 A3026 RMK A01 T10611081  RH  086%=      5-min Rain = 0
KCA1 200558Z 10006KT M06/M08 A3026 RMK A01 T10621081  RH  087%=      5-min Rain = 0
KCA1 200559Z 11004KT M06/M08 A3026 RMK A01 T10621080  RH  087%=      5-min Rain = 0

Page generated in 0.1212 seconds.